<?xml version="1.0" encoding="UTF-8"?>
<gpx version="1.1" creator="2bulu-scraper" xmlns="http://www.topografix.com/GPX/1/1">
  <metadata><name>七星山涯岩</name><desc>source: 2bulu.com trackId=75682705; exported 2026-08-30T14:27:55.936Z</desc></metadata>
  <wpt lat="28.7495465" lon="104.6510556"><ele>244</ele><name>路口右转
        </name></wpt>
  <wpt lat="28.7481883" lon="104.6521152"><ele>236</ele><name>沿着小路过桥
        </name></wpt>
  <wpt lat="28.747497" lon="104.6525866"><ele>229</ele><name>左转往小路上山
        </name></wpt>
  <wpt lat="28.7471361" lon="104.6540305"><ele>277</ele><name>沿着小路一直往上爬
        </name></wpt>
  <wpt lat="28.7464241" lon="104.6544638"><ele>320</ele><name>沿着石梯往上爬
        </name></wpt>
  <wpt lat="28.7457891" lon="104.6559846"><ele>362</ele><name>左转往上爬
        </name></wpt>
  <wpt lat="28.7452739" lon="104.6580186"><ele>451</ele><name>左转
        </name></wpt>
  <wpt lat="28.7453782" lon="104.6582525"><ele>451</ele><name>左转
        </name></wpt>
  <wpt lat="28.7465597" lon="104.6593538"><ele>444</ele><name>右转往上爬
        </name></wpt>
  <wpt lat="28.7470313" lon="104.65973"><ele>448</ele><name>
        </name></wpt>
  <wpt lat="28.7467381" lon="104.6606584"><ele>464</ele><name>到达公路
        </name></wpt>
  <wpt lat="28.7467597" lon="104.6606349"><ele>464</ele><name>左转往上走公路
        </name></wpt>
  <wpt lat="28.747043" lon="104.6619511"><ele>465</ele><name>右转往上爬，进入主路
        </name></wpt>
  <wpt lat="28.7470021" lon="104.6619641"><ele>475</ele><name>靠下面主路前行
        </name></wpt>
  <wpt lat="28.744742" lon="104.6602597"><ele>491</ele><name>从房子旁边进入石梯
        </name></wpt>
  <wpt lat="28.7440595" lon="104.6604348"><ele>522</ele><name>左转下坡
        </name></wpt>
  <wpt lat="28.7444086" lon="104.6608224"><ele>519</ele><name>下坡来30米，靠右边小路进山
        </name></wpt>
  <wpt lat="28.7465295" lon="104.6626288"><ele>541</ele><name>沿着砖头路前行
        </name></wpt>
  <wpt lat="28.7484337" lon="104.6646201"><ele>574</ele><name>到达中午休息地，树林
        </name></wpt>
  <wpt lat="28.7487569" lon="104.6649745"><ele>577</ele><name>休息结束后，继续沿着砖头路前行
        </name></wpt>
  <wpt lat="28.751208" lon="104.6672628"><ele>535</ele><name>到达公路后左转沿着公路下行
        </name></wpt>
  <wpt lat="28.7507909" lon="104.6663898"><ele>516</ele><name>右转进入泥巴公路
        </name></wpt>
  <wpt lat="28.7508852" lon="104.666318"><ele>510</ele><name>
        </name></wpt>
  <wpt lat="28.7523829" lon="104.6679271"><ele>501</ele><name>沿着马路直行
        </name></wpt>
  <wpt lat="28.7547224" lon="104.6701577"><ele>521</ele><name>封路不能到达岩涯，返回
        </name></wpt>
  <wpt lat="28.7524761" lon="104.6679396"><ele>505</ele><name>返回到这里分路，左转进去
        </name></wpt>
  <wpt lat="28.7527531" lon="104.670647"><ele>476</ele><name>右转往下面前行
        </name></wpt>
  <wpt lat="28.7523884" lon="104.6711359"><ele>455</ele><name>
        </name></wpt>
  <wpt lat="28.7522991" lon="104.6717559"><ele>439</ele><name>左转往上爬
        </name></wpt>
  <wpt lat="28.7525202" lon="104.671898"><ele>445</ele><name>
        </name></wpt>
  <wpt lat="28.7531158" lon="104.6720646"><ele>446</ele><name>到达这里往右边下去
        </name></wpt>
  <wpt lat="28.7531889" lon="104.6720222"><ele>448</ele><name>
        </name></wpt>
  <wpt lat="28.7534361" lon="104.6724494"><ele>439</ele><name>
        </name></wpt>
  <wpt lat="28.7540814" lon="104.6727198"><ele>405</ele><name>下坡后往左边继续走
        </name></wpt>
  <wpt lat="28.7547055" lon="104.6726415"><ele>394</ele><name>往前面继续走
        </name></wpt>
  <wpt lat="28.7550431" lon="104.6731216"><ele>393</ele><name>往下继续走
        </name></wpt>
  <wpt lat="28.7552077" lon="104.6733746"><ele>373</ele><name>
        </name></wpt>
  <wpt lat="28.7552818" lon="104.6733771"><ele>362</ele><name>到达公路后往左转下坡
        </name></wpt>
  <wpt lat="28.7557903" lon="104.6733569"><ele>350</ele><name>下来10米到达房子，从对面下去
        </name></wpt>
  <wpt lat="28.7562442" lon="104.6737997"><ele>353</ele><name>
        </name></wpt>
  <wpt lat="28.7570522" lon="104.6744773"><ele>338</ele><name>继续往前直行下去
        </name></wpt>
  <wpt lat="28.7572964" lon="104.6748421"><ele>325</ele><name>下坡
        </name></wpt>
  <wpt lat="28.7574767" lon="104.6753686"><ele>306</ele><name>继续下坡
        </name></wpt>
  <wpt lat="28.7579681" lon="104.6754828"><ele>298</ele><name>继续往下走
        </name></wpt>
  <wpt lat="28.758926" lon="104.675644"><ele>296</ele><name>
        </name></wpt>
  <wpt lat="28.758926" lon="104.675644"><ele>296</ele><name>继续下坡
        </name></wpt>
  <wpt lat="28.7594215" lon="104.6756958"><ele>284</ele><name>
        </name></wpt>
  <wpt lat="28.7594687" lon="104.6758775"><ele>275</ele><name>往左边走
        </name></wpt>
  <wpt lat="28.7605095" lon="104.6756195"><ele>263</ele><name>沿着公路直行，走出去就是南广公交车站
        </name></wpt>
  <trk><name>七星山涯岩</name>
      <trkseg>
        <trkpt lat="28.7495445" lon="104.6508648"><ele>251.78</ele><time>2025-12-05T17:43:52.000Z</time></trkpt>
        <trkpt lat="28.7495251" lon="104.6509516"><ele>251.78</ele><time>2025-12-05T17:44:06.000Z</time></trkpt>
        <trkpt lat="28.7495465" lon="104.6510556"><ele>249.33</ele><time>2025-12-05T17:44:22.000Z</time></trkpt>
        <trkpt lat="28.7495466" lon="104.6511629"><ele>246.96</ele><time>2025-12-05T17:44:34.000Z</time></trkpt>
        <trkpt lat="28.7495142" lon="104.6512759"><ele>245.06</ele><time>2025-12-05T17:44:46.000Z</time></trkpt>
        <trkpt lat="28.7494541" lon="104.6513852"><ele>243.51</ele><time>2025-12-05T17:44:56.000Z</time></trkpt>
        <trkpt lat="28.7493772" lon="104.6514615"><ele>242.07</ele><time>2025-12-05T17:45:04.000Z</time></trkpt>
        <trkpt lat="28.7492711" lon="104.6515106"><ele>240.55</ele><time>2025-12-05T17:45:14.000Z</time></trkpt>
        <trkpt lat="28.74917" lon="104.6515552"><ele>239.61</ele><time>2025-12-05T17:45:24.000Z</time></trkpt>
        <trkpt lat="28.7490654" lon="104.6515778"><ele>238.15</ele><time>2025-12-05T17:45:34.000Z</time></trkpt>
        <trkpt lat="28.7489822" lon="104.6516296"><ele>237.97</ele><time>2025-12-05T17:45:44.000Z</time></trkpt>
        <trkpt lat="28.7489202" lon="104.6517146"><ele>237.95</ele><time>2025-12-05T17:45:54.000Z</time></trkpt>
        <trkpt lat="28.7488335" lon="104.6517685"><ele>238.76</ele><time>2025-12-05T17:46:10.000Z</time></trkpt>
        <trkpt lat="28.7487357" lon="104.651773"><ele>241.16</ele><time>2025-12-05T17:46:20.000Z</time></trkpt>
        <trkpt lat="28.7486358" lon="104.6517956"><ele>242.54</ele><time>2025-12-05T17:46:32.000Z</time></trkpt>
        <trkpt lat="28.7485429" lon="104.6518324"><ele>242.83</ele><time>2025-12-05T17:46:44.000Z</time></trkpt>
        <trkpt lat="28.7484411" lon="104.6518513"><ele>242.62</ele><time>2025-12-05T17:46:58.000Z</time></trkpt>
        <trkpt lat="28.7483835" lon="104.651868"><ele>241.31</ele><time>2025-12-05T17:47:06.000Z</time></trkpt>
        <trkpt lat="28.7483235" lon="104.6519344"><ele>240.67</ele><time>2025-12-05T17:47:22.000Z</time></trkpt>
        <trkpt lat="28.7482676" lon="104.6520331"><ele>240.69</ele><time>2025-12-05T17:47:34.000Z</time></trkpt>
        <trkpt lat="28.7481883" lon="104.6521152"><ele>238.97</ele><time>2025-12-05T17:47:48.000Z</time></trkpt>
        <trkpt lat="28.7480961" lon="104.652148"><ele>237.71</ele><time>2025-12-05T17:48:02.000Z</time></trkpt>
        <trkpt lat="28.7479976" lon="104.6521646"><ele>235.68</ele><time>2025-12-05T17:48:14.000Z</time></trkpt>
        <trkpt lat="28.7478912" lon="104.6521628"><ele>233.58</ele><time>2025-12-05T17:48:30.000Z</time></trkpt>
        <trkpt lat="28.7478086" lon="104.6521112"><ele>232.26</ele><time>2025-12-05T17:48:40.000Z</time></trkpt>
        <trkpt lat="28.7477191" lon="104.6521139"><ele>231.6</ele><time>2025-12-05T17:48:54.000Z</time></trkpt>
        <trkpt lat="28.7476603" lon="104.6521822"><ele>233.15</ele><time>2025-12-05T17:49:08.000Z</time></trkpt>
        <trkpt lat="28.7475999" lon="104.652274"><ele>234.85</ele><time>2025-12-05T17:49:22.000Z</time></trkpt>
        <trkpt lat="28.7475536" lon="104.6523734"><ele>234.84</ele><time>2025-12-05T17:49:32.000Z</time></trkpt>
        <trkpt lat="28.7475351" lon="104.6524853"><ele>232.81</ele><time>2025-12-05T17:49:48.000Z</time></trkpt>
        <trkpt lat="28.747497" lon="104.6525866"><ele>231.54</ele><time>2025-12-05T17:50:12.000Z</time></trkpt>
        <trkpt lat="28.7474124" lon="104.6526378"><ele>230.56</ele><time>2025-12-05T17:51:34.000Z</time></trkpt>
        <trkpt lat="28.7474112" lon="104.6526355"><ele>229.91</ele><time>2025-12-05T17:51:36.000Z</time></trkpt>
        <trkpt lat="28.7473867" lon="104.6527201"><ele>229.54</ele><time>2025-12-05T17:52:00.000Z</time></trkpt>
        <trkpt lat="28.7473918" lon="104.652825"><ele>230.38</ele><time>2025-12-05T17:52:20.000Z</time></trkpt>
        <trkpt lat="28.7474623" lon="104.6528754"><ele>231.36</ele><time>2025-12-05T17:52:36.000Z</time></trkpt>
        <trkpt lat="28.7474225" lon="104.652934"><ele>233.35</ele><time>2025-12-05T17:53:06.000Z</time></trkpt>
        <trkpt lat="28.7474617" lon="104.6529962"><ele>234.42</ele><time>2025-12-05T17:53:16.000Z</time></trkpt>
        <trkpt lat="28.7474627" lon="104.6530266"><ele>235.77</ele><time>2025-12-05T17:53:26.000Z</time></trkpt>
        <trkpt lat="28.7475117" lon="104.6530849"><ele>235.52</ele><time>2025-12-05T17:53:48.000Z</time></trkpt>
        <trkpt lat="28.7475115" lon="104.65319"><ele>236.15</ele><time>2025-12-05T17:54:08.000Z</time></trkpt>
        <trkpt lat="28.7474497" lon="104.6532749"><ele>236.28</ele><time>2025-12-05T17:54:30.000Z</time></trkpt>
        <trkpt lat="28.7473637" lon="104.6533409"><ele>238.89</ele><time>2025-12-05T17:54:46.000Z</time></trkpt>
        <trkpt lat="28.7472972" lon="104.6534249"><ele>241.35</ele><time>2025-12-05T17:55:18.000Z</time></trkpt>
        <trkpt lat="28.7472116" lon="104.6534362"><ele>243.69</ele><time>2025-12-05T17:56:10.000Z</time></trkpt>
        <trkpt lat="28.7471766" lon="104.6535149"><ele>247.93</ele><time>2025-12-05T17:56:46.000Z</time></trkpt>
        <trkpt lat="28.7471903" lon="104.6536145"><ele>251.96</ele><time>2025-12-05T17:57:00.000Z</time></trkpt>
        <trkpt lat="28.7472251" lon="104.6537189"><ele>255.17</ele><time>2025-12-05T17:57:14.000Z</time></trkpt>
        <trkpt lat="28.7472777" lon="104.6538138"><ele>256.67</ele><time>2025-12-05T17:57:28.000Z</time></trkpt>
        <trkpt lat="28.747291" lon="104.6538328"><ele>258.13</ele><time>2025-12-05T17:57:30.000Z</time></trkpt>
        <trkpt lat="28.7472688" lon="104.6539082"><ele>259</ele><time>2025-12-05T17:58:26.000Z</time></trkpt>
        <trkpt lat="28.7472107" lon="104.6539667"><ele>261.49</ele><time>2025-12-05T17:58:48.000Z</time></trkpt>
        <trkpt lat="28.7471361" lon="104.6540305"><ele>265.09</ele><time>2025-12-05T17:59:16.000Z</time></trkpt>
        <trkpt lat="28.7470595" lon="104.6540997"><ele>270.24</ele><time>2025-12-05T17:59:52.000Z</time></trkpt>
        <trkpt lat="28.7469824" lon="104.6541653"><ele>273.88</ele><time>2025-12-05T18:00:28.000Z</time></trkpt>
        <trkpt lat="28.7468938" lon="104.6541973"><ele>276.51</ele><time>2025-12-05T18:01:00.000Z</time></trkpt>
        <trkpt lat="28.7468772" lon="104.6542082"><ele>279.23</ele><time>2025-12-05T18:01:06.000Z</time></trkpt>
        <trkpt lat="28.7468996" lon="104.6542854"><ele>281.05</ele><time>2025-12-05T18:01:57.000Z</time></trkpt>
        <trkpt lat="28.746842" lon="104.6543178"><ele>285.93</ele><time>2025-12-05T18:02:31.000Z</time></trkpt>
        <trkpt lat="28.7468579" lon="104.654396"><ele>290.14</ele><time>2025-12-05T18:02:55.000Z</time></trkpt>
        <trkpt lat="28.7467904" lon="104.6544217"><ele>294.37</ele><time>2025-12-05T18:03:39.000Z</time></trkpt>
        <trkpt lat="28.7466992" lon="104.6544221"><ele>301.23</ele><time>2025-12-05T18:03:59.000Z</time></trkpt>
        <trkpt lat="28.7465965" lon="104.6544136"><ele>308.17</ele><time>2025-12-05T18:04:13.000Z</time></trkpt>
        <trkpt lat="28.74649" lon="104.6544142"><ele>313.82</ele><time>2025-12-05T18:04:23.000Z</time></trkpt>
        <trkpt lat="28.7464241" lon="104.6544638"><ele>316.29</ele><time>2025-12-05T18:04:41.000Z</time></trkpt>
        <trkpt lat="28.7464609" lon="104.6545429"><ele>317.72</ele><time>2025-12-05T18:05:34.000Z</time></trkpt>
        <trkpt lat="28.7465476" lon="104.6546489"><ele>321.49</ele><time>2025-12-05T18:08:06.000Z</time></trkpt>
        <trkpt lat="28.7464874" lon="104.6547474"><ele>323.96</ele><time>2025-12-05T18:08:44.000Z</time></trkpt>
        <trkpt lat="28.7464763" lon="104.6548566"><ele>327.73</ele><time>2025-12-05T18:09:18.000Z</time></trkpt>
        <trkpt lat="28.7464537" lon="104.6549594"><ele>333.95</ele><time>2025-12-05T18:09:36.000Z</time></trkpt>
        <trkpt lat="28.7464034" lon="104.6550479"><ele>340.15</ele><time>2025-12-05T18:09:54.000Z</time></trkpt>
        <trkpt lat="28.7463524" lon="104.655134"><ele>344.78</ele><time>2025-12-05T18:10:14.000Z</time></trkpt>
        <trkpt lat="28.746275" lon="104.6551883"><ele>347.39</ele><time>2025-12-05T18:10:28.000Z</time></trkpt>
        <trkpt lat="28.7461909" lon="104.6552378"><ele>350.96</ele><time>2025-12-05T18:10:40.000Z</time></trkpt>
        <trkpt lat="28.7461512" lon="104.6552601"><ele>355.2</ele><time>2025-12-05T18:10:54.000Z</time></trkpt>
        <trkpt lat="28.7460751" lon="104.6553118"><ele>356.75</ele><time>2025-12-05T18:11:10.000Z</time></trkpt>
        <trkpt lat="28.7460053" lon="104.6553947"><ele>358.04</ele><time>2025-12-05T18:11:20.000Z</time></trkpt>
        <trkpt lat="28.7460104" lon="104.6554961"><ele>359.37</ele><time>2025-12-05T18:11:44.000Z</time></trkpt>
        <trkpt lat="28.7460148" lon="104.6556029"><ele>360.53</ele><time>2025-12-05T18:12:06.000Z</time></trkpt>
        <trkpt lat="28.7460257" lon="104.6557106"><ele>362.9</ele><time>2025-12-05T18:12:28.000Z</time></trkpt>
        <trkpt lat="28.7460535" lon="104.6558195"><ele>365.22</ele><time>2025-12-05T18:12:46.000Z</time></trkpt>
        <trkpt lat="28.7460197" lon="104.6559108"><ele>366.75</ele><time>2025-12-05T18:13:02.000Z</time></trkpt>
        <trkpt lat="28.7459385" lon="104.655964"><ele>367.91</ele><time>2025-12-05T18:13:14.000Z</time></trkpt>
        <trkpt lat="28.7458377" lon="104.6559705"><ele>368.78</ele><time>2025-12-05T18:13:28.000Z</time></trkpt>
        <trkpt lat="28.7457891" lon="104.6559846"><ele>366.09</ele><time>2025-12-05T18:13:36.000Z</time></trkpt>
        <trkpt lat="28.7458286" lon="104.656047"><ele>364.53</ele><time>2025-12-05T18:14:08.000Z</time></trkpt>
        <trkpt lat="28.7458363" lon="104.6561443"><ele>365.04</ele><time>2025-12-05T18:14:56.000Z</time></trkpt>
        <trkpt lat="28.7458588" lon="104.6562534"><ele>365.86</ele><time>2025-12-05T18:15:16.000Z</time></trkpt>
        <trkpt lat="28.7458738" lon="104.6563739"><ele>368.98</ele><time>2025-12-05T18:15:48.000Z</time></trkpt>
        <trkpt lat="28.7458601" lon="104.6564832"><ele>374.3</ele><time>2025-12-05T18:16:18.000Z</time></trkpt>
        <trkpt lat="28.7458624" lon="104.6565965"><ele>379.24</ele><time>2025-12-05T18:16:40.000Z</time></trkpt>
        <trkpt lat="28.7458739" lon="104.656702"><ele>384.38</ele><time>2025-12-05T18:17:18.000Z</time></trkpt>
        <trkpt lat="28.7459107" lon="104.6567967"><ele>390.74</ele><time>2025-12-05T18:17:32.000Z</time></trkpt>
        <trkpt lat="28.7458993" lon="104.6568918"><ele>393.99</ele><time>2025-12-05T18:17:42.000Z</time></trkpt>
        <trkpt lat="28.7458892" lon="104.6568893"><ele>399.37</ele><time>2025-12-05T18:17:44.000Z</time></trkpt>
        <trkpt lat="28.7458581" lon="104.6569609"><ele>402</ele><time>2025-12-05T18:18:02.000Z</time></trkpt>
        <trkpt lat="28.7458066" lon="104.65706"><ele>403.76</ele><time>2025-12-05T18:19:04.000Z</time></trkpt>
        <trkpt lat="28.745754" lon="104.6571467"><ele>404.08</ele><time>2025-12-05T18:19:38.000Z</time></trkpt>
        <trkpt lat="28.7457274" lon="104.6572449"><ele>404.83</ele><time>2025-12-05T18:19:58.000Z</time></trkpt>
        <trkpt lat="28.7456693" lon="104.6573214"><ele>404.97</ele><time>2025-12-05T18:20:40.000Z</time></trkpt>
        <trkpt lat="28.7456444" lon="104.6574232"><ele>409.23</ele><time>2025-12-05T18:21:10.000Z</time></trkpt>
        <trkpt lat="28.7456238" lon="104.6575257"><ele>415.12</ele><time>2025-12-05T18:21:44.000Z</time></trkpt>
        <trkpt lat="28.7456465" lon="104.657624"><ele>421.02</ele><time>2025-12-05T18:22:14.000Z</time></trkpt>
        <trkpt lat="28.7456357" lon="104.6577344"><ele>425.72</ele><time>2025-12-05T18:22:34.000Z</time></trkpt>
        <trkpt lat="28.7455618" lon="104.6577782"><ele>429.57</ele><time>2025-12-05T18:22:52.000Z</time></trkpt>
        <trkpt lat="28.7454978" lon="104.6578472"><ele>432.39</ele><time>2025-12-05T18:23:06.000Z</time></trkpt>
        <trkpt lat="28.7454544" lon="104.6579369"><ele>433.85</ele><time>2025-12-05T18:23:24.000Z</time></trkpt>
        <trkpt lat="28.745389" lon="104.6580122"><ele>436.51</ele><time>2025-12-05T18:23:38.000Z</time></trkpt>
        <trkpt lat="28.7452946" lon="104.6580178"><ele>439.31</ele><time>2025-12-05T18:24:00.000Z</time></trkpt>
        <trkpt lat="28.7452739" lon="104.6580186"><ele>444.2</ele><time>2025-12-05T18:24:04.000Z</time></trkpt>
        <trkpt lat="28.745329" lon="104.6580674"><ele>447.11</ele><time>2025-12-05T18:24:38.000Z</time></trkpt>
        <trkpt lat="28.7453758" lon="104.6581575"><ele>448.03</ele><time>2025-12-05T18:24:50.000Z</time></trkpt>
        <trkpt lat="28.7453782" lon="104.6582525"><ele>447.32</ele><time>2025-12-05T18:25:04.000Z</time></trkpt>
        <trkpt lat="28.7453655" lon="104.65836"><ele>448.83</ele><time>2025-12-05T18:25:28.000Z</time></trkpt>
        <trkpt lat="28.7454369" lon="104.6584026"><ele>448.43</ele><time>2025-12-05T18:25:42.000Z</time></trkpt>
        <trkpt lat="28.7455276" lon="104.6584412"><ele>447.67</ele><time>2025-12-05T18:25:54.000Z</time></trkpt>
        <trkpt lat="28.7456327" lon="104.6584497"><ele>447.49</ele><time>2025-12-05T18:26:08.000Z</time></trkpt>
        <trkpt lat="28.7457362" lon="104.6584833"><ele>447.14</ele><time>2025-12-05T18:26:20.000Z</time></trkpt>
        <trkpt lat="28.7458272" lon="104.6585305"><ele>448</ele><time>2025-12-05T18:26:34.000Z</time></trkpt>
        <trkpt lat="28.7459137" lon="104.6585732"><ele>447.68</ele><time>2025-12-05T18:26:44.000Z</time></trkpt>
        <trkpt lat="28.7459892" lon="104.6586329"><ele>447.89</ele><time>2025-12-05T18:26:54.000Z</time></trkpt>
        <trkpt lat="28.7460768" lon="104.6586876"><ele>448.47</ele><time>2025-12-05T18:27:06.000Z</time></trkpt>
        <trkpt lat="28.7461794" lon="104.6587245"><ele>448.07</ele><time>2025-12-05T18:27:18.000Z</time></trkpt>
        <trkpt lat="28.7462739" lon="104.658758"><ele>447.29</ele><time>2025-12-05T18:27:30.000Z</time></trkpt>
        <trkpt lat="28.7463421" lon="104.6588336"><ele>447.19</ele><time>2025-12-05T18:27:42.000Z</time></trkpt>
        <trkpt lat="28.7464091" lon="104.6589052"><ele>446.74</ele><time>2025-12-05T18:27:54.000Z</time></trkpt>
        <trkpt lat="28.7464114" lon="104.6590051"><ele>446.75</ele><time>2025-12-05T18:28:06.000Z</time></trkpt>
        <trkpt lat="28.7463519" lon="104.6590983"><ele>446.54</ele><time>2025-12-05T18:28:18.000Z</time></trkpt>
        <trkpt lat="28.7463565" lon="104.6591916"><ele>445.9</ele><time>2025-12-05T18:28:30.000Z</time></trkpt>
        <trkpt lat="28.7464326" lon="104.6592217"><ele>446.46</ele><time>2025-12-05T18:29:06.000Z</time></trkpt>
        <trkpt lat="28.7465241" lon="104.6592704"><ele>445.23</ele><time>2025-12-05T18:29:40.000Z</time></trkpt>
        <trkpt lat="28.7465905" lon="104.6593538"><ele>445.96</ele><time>2025-12-05T18:31:06.000Z</time></trkpt>
        <trkpt lat="28.7466801" lon="104.6593945"><ele>444.9</ele><time>2025-12-05T18:36:30.000Z</time></trkpt>
        <trkpt lat="28.7466836" lon="104.6593944"><ele>445.98</ele><time>2025-12-05T18:36:32.000Z</time></trkpt>
        <trkpt lat="28.7467197" lon="104.6594787"><ele>446.68</ele><time>2025-12-05T18:36:54.000Z</time></trkpt>
        <trkpt lat="28.7467469" lon="104.6594811"><ele>447.77</ele><time>2025-12-05T18:37:00.000Z</time></trkpt>
        <trkpt lat="28.7468143" lon="104.6595221"><ele>449.37</ele><time>2025-12-05T18:37:18.000Z</time></trkpt>
        <trkpt lat="28.7468755" lon="104.6595999"><ele>449.73</ele><time>2025-12-05T18:37:38.000Z</time></trkpt>
        <trkpt lat="28.7469568" lon="104.659652"><ele>450</ele><time>2025-12-05T18:37:50.000Z</time></trkpt>
        <trkpt lat="28.7470313" lon="104.65973"><ele>449.55</ele><time>2025-12-05T18:38:04.000Z</time></trkpt>
        <trkpt lat="28.7470597" lon="104.659837"><ele>448.86</ele><time>2025-12-05T18:38:24.000Z</time></trkpt>
        <trkpt lat="28.7471164" lon="104.6599262"><ele>449.67</ele><time>2025-12-05T18:38:38.000Z</time></trkpt>
        <trkpt lat="28.7472006" lon="104.6599822"><ele>449.35</ele><time>2025-12-05T18:38:58.000Z</time></trkpt>
        <trkpt lat="28.7472707" lon="104.6600495"><ele>449.78</ele><time>2025-12-05T18:39:08.000Z</time></trkpt>
        <trkpt lat="28.7473257" lon="104.660145"><ele>449.77</ele><time>2025-12-05T18:39:20.000Z</time></trkpt>
        <trkpt lat="28.7473301" lon="104.6602619"><ele>449.9</ele><time>2025-12-05T18:39:32.000Z</time></trkpt>
        <trkpt lat="28.7472994" lon="104.6603808"><ele>449.58</ele><time>2025-12-05T18:39:48.000Z</time></trkpt>
        <trkpt lat="28.7472194" lon="104.6604673"><ele>449.59</ele><time>2025-12-05T18:40:00.000Z</time></trkpt>
        <trkpt lat="28.7471244" lon="104.6605234"><ele>450.72</ele><time>2025-12-05T18:40:16.000Z</time></trkpt>
        <trkpt lat="28.7470215" lon="104.6605494"><ele>453.04</ele><time>2025-12-05T18:40:38.000Z</time></trkpt>
        <trkpt lat="28.7469166" lon="104.6605532"><ele>457.55</ele><time>2025-12-05T18:41:00.000Z</time></trkpt>
        <trkpt lat="28.7468146" lon="104.6605607"><ele>461.68</ele><time>2025-12-05T18:41:22.000Z</time></trkpt>
        <trkpt lat="28.7467573" lon="104.6606284"><ele>464.2</ele><time>2025-12-05T18:41:48.000Z</time></trkpt>
        <trkpt lat="28.7467381" lon="104.6606584"><ele>463.86</ele><time>2025-12-05T18:41:52.000Z</time></trkpt>
        <trkpt lat="28.7466698" lon="104.6606876"><ele>463.83</ele><time>2025-12-05T18:51:02.000Z</time></trkpt>
        <trkpt lat="28.7467597" lon="104.6606349"><ele>465.94</ele><time>2025-12-05T18:51:22.000Z</time></trkpt>
        <trkpt lat="28.7467178" lon="104.6606877"><ele>465.12</ele><time>2025-12-05T18:51:56.000Z</time></trkpt>
        <trkpt lat="28.7467215" lon="104.6607866"><ele>464.62</ele><time>2025-12-05T18:52:04.000Z</time></trkpt>
        <trkpt lat="28.7467401" lon="104.6608987"><ele>464.12</ele><time>2025-12-05T18:52:14.000Z</time></trkpt>
        <trkpt lat="28.7467548" lon="104.6610127"><ele>463.73</ele><time>2025-12-05T18:52:22.000Z</time></trkpt>
        <trkpt lat="28.7467694" lon="104.6611235"><ele>460.42</ele><time>2025-12-05T18:52:36.000Z</time></trkpt>
        <trkpt lat="28.7467824" lon="104.6612324"><ele>459.63</ele><time>2025-12-05T18:52:50.000Z</time></trkpt>
        <trkpt lat="28.7467843" lon="104.6613438"><ele>460.01</ele><time>2025-12-05T18:53:10.000Z</time></trkpt>
        <trkpt lat="28.7467842" lon="104.661451"><ele>461.47</ele><time>2025-12-05T18:53:22.000Z</time></trkpt>
        <trkpt lat="28.74681" lon="104.6615574"><ele>462.63</ele><time>2025-12-05T18:53:34.000Z</time></trkpt>
        <trkpt lat="28.7468516" lon="104.6616722"><ele>464.38</ele><time>2025-12-05T18:53:50.000Z</time></trkpt>
        <trkpt lat="28.7468928" lon="104.6617769"><ele>463.27</ele><time>2025-12-05T18:54:00.000Z</time></trkpt>
        <trkpt lat="28.7469633" lon="104.6618806"><ele>462.83</ele><time>2025-12-05T18:54:14.000Z</time></trkpt>
        <trkpt lat="28.747043" lon="104.6619511"><ele>462.15</ele><time>2025-12-05T18:54:26.000Z</time></trkpt>
        <trkpt lat="28.7471257" lon="104.6620195"><ele>463.48</ele><time>2025-12-05T18:54:46.000Z</time></trkpt>
        <trkpt lat="28.7470809" lon="104.6620257"><ele>466.03</ele><time>2025-12-05T18:55:14.000Z</time></trkpt>
        <trkpt lat="28.7470021" lon="104.6619641"><ele>468.92</ele><time>2025-12-05T18:55:32.000Z</time></trkpt>
        <trkpt lat="28.7468853" lon="104.6618669"><ele>471.57</ele><time>2025-12-05T18:56:40.000Z</time></trkpt>
        <trkpt lat="28.7468159" lon="104.6617888"><ele>471.76</ele><time>2025-12-05T18:56:52.000Z</time></trkpt>
        <trkpt lat="28.7467457" lon="104.6617184"><ele>473.03</ele><time>2025-12-05T18:57:02.000Z</time></trkpt>
        <trkpt lat="28.7466775" lon="104.6616378"><ele>473.99</ele><time>2025-12-05T18:57:14.000Z</time></trkpt>
        <trkpt lat="28.746603" lon="104.6615686"><ele>475.37</ele><time>2025-12-05T18:57:28.000Z</time></trkpt>
        <trkpt lat="28.7465316" lon="104.661501"><ele>477.78</ele><time>2025-12-05T18:57:40.000Z</time></trkpt>
        <trkpt lat="28.7464508" lon="104.6614288"><ele>480.5</ele><time>2025-12-05T18:57:52.000Z</time></trkpt>
        <trkpt lat="28.7463652" lon="104.661374"><ele>482.15</ele><time>2025-12-05T18:58:02.000Z</time></trkpt>
        <trkpt lat="28.7462708" lon="104.6613247"><ele>483.65</ele><time>2025-12-05T18:58:14.000Z</time></trkpt>
        <trkpt lat="28.746178" lon="104.6612839"><ele>484.52</ele><time>2025-12-05T18:58:24.000Z</time></trkpt>
        <trkpt lat="28.7460764" lon="104.6612637"><ele>485.69</ele><time>2025-12-05T18:58:34.000Z</time></trkpt>
        <trkpt lat="28.7459941" lon="104.6612479"><ele>486.83</ele><time>2025-12-05T18:58:44.000Z</time></trkpt>
        <trkpt lat="28.7459076" lon="104.6612315"><ele>486.97</ele><time>2025-12-05T18:58:56.000Z</time></trkpt>
        <trkpt lat="28.7458181" lon="104.6611927"><ele>487.52</ele><time>2025-12-05T18:59:08.000Z</time></trkpt>
        <trkpt lat="28.7457309" lon="104.6611384"><ele>488.74</ele><time>2025-12-05T18:59:20.000Z</time></trkpt>
        <trkpt lat="28.745643" lon="104.6610888"><ele>489.41</ele><time>2025-12-05T18:59:32.000Z</time></trkpt>
        <trkpt lat="28.7455558" lon="104.6610474"><ele>490.02</ele><time>2025-12-05T18:59:44.000Z</time></trkpt>
        <trkpt lat="28.7454759" lon="104.6609876"><ele>489.21</ele><time>2025-12-05T18:59:54.000Z</time></trkpt>
        <trkpt lat="28.7454109" lon="104.6609196"><ele>488.36</ele><time>2025-12-05T19:00:04.000Z</time></trkpt>
        <trkpt lat="28.7453364" lon="104.6608649"><ele>487.5</ele><time>2025-12-05T19:00:20.000Z</time></trkpt>
        <trkpt lat="28.745248" lon="104.6608364"><ele>486.76</ele><time>2025-12-05T19:00:28.000Z</time></trkpt>
        <trkpt lat="28.7451484" lon="104.6608312"><ele>485.75</ele><time>2025-12-05T19:00:36.000Z</time></trkpt>
        <trkpt lat="28.7451372" lon="104.6608431"><ele>485.93</ele><time>2025-12-05T19:00:38.000Z</time></trkpt>
        <trkpt lat="28.7450709" lon="104.6608052"><ele>483.17</ele><time>2025-12-05T19:01:10.000Z</time></trkpt>
        <trkpt lat="28.7449921" lon="104.6607364"><ele>484.47</ele><time>2025-12-05T19:01:18.000Z</time></trkpt>
        <trkpt lat="28.7449187" lon="104.6606559"><ele>486.18</ele><time>2025-12-05T19:01:26.000Z</time></trkpt>
        <trkpt lat="28.7448517" lon="104.6605704"><ele>488.53</ele><time>2025-12-05T19:01:38.000Z</time></trkpt>
        <trkpt lat="28.7447966" lon="104.6604773"><ele>490.01</ele><time>2025-12-05T19:01:48.000Z</time></trkpt>
        <trkpt lat="28.7447678" lon="104.6603723"><ele>490.07</ele><time>2025-12-05T19:02:06.000Z</time></trkpt>
        <trkpt lat="28.744742" lon="104.6602597"><ele>490.38</ele><time>2025-12-05T19:02:28.000Z</time></trkpt>
        <trkpt lat="28.744672" lon="104.6602074"><ele>490.46</ele><time>2025-12-05T19:02:52.000Z</time></trkpt>
        <trkpt lat="28.7446065" lon="104.6601379"><ele>488.9</ele><time>2025-12-05T19:03:36.000Z</time></trkpt>
        <trkpt lat="28.7445214" lon="104.6601329"><ele>487.44</ele><time>2025-12-05T19:04:24.000Z</time></trkpt>
        <trkpt lat="28.7445108" lon="104.6602176"><ele>484.04</ele><time>2025-12-05T19:04:36.000Z</time></trkpt>
        <trkpt lat="28.7445492" lon="104.6603251"><ele>482.78</ele><time>2025-12-05T19:05:08.000Z</time></trkpt>
        <trkpt lat="28.7445708" lon="104.6604216"><ele>487.72</ele><time>2025-12-05T19:05:30.000Z</time></trkpt>
        <trkpt lat="28.7445094" lon="104.6604955"><ele>492.28</ele><time>2025-12-05T19:05:56.000Z</time></trkpt>
        <trkpt lat="28.7445465" lon="104.6605493"><ele>494.55</ele><time>2025-12-05T19:06:08.000Z</time></trkpt>
        <trkpt lat="28.744495" lon="104.6605602"><ele>496.81</ele><time>2025-12-05T19:06:28.000Z</time></trkpt>
        <trkpt lat="28.7444357" lon="104.6604883"><ele>497.68</ele><time>2025-12-05T19:07:10.000Z</time></trkpt>
        <trkpt lat="28.7443507" lon="104.6604869"><ele>502.68</ele><time>2025-12-05T19:07:58.000Z</time></trkpt>
        <trkpt lat="28.7442657" lon="104.6604424"><ele>508.3</ele><time>2025-12-05T19:08:22.000Z</time></trkpt>
        <trkpt lat="28.7441645" lon="104.6604409"><ele>513.83</ele><time>2025-12-05T19:08:38.000Z</time></trkpt>
        <trkpt lat="28.7440595" lon="104.6604348"><ele>516.7</ele><time>2025-12-05T19:09:10.000Z</time></trkpt>
        <trkpt lat="28.7440821" lon="104.6604923"><ele>518.81</ele><time>2025-12-05T19:09:40.000Z</time></trkpt>
        <trkpt lat="28.7441639" lon="104.6605582"><ele>519.25</ele><time>2025-12-05T19:09:52.000Z</time></trkpt>
        <trkpt lat="28.7442472" lon="104.6606377"><ele>519.45</ele><time>2025-12-05T19:10:02.000Z</time></trkpt>
        <trkpt lat="28.7443346" lon="104.6607401"><ele>518.98</ele><time>2025-12-05T19:10:12.000Z</time></trkpt>
        <trkpt lat="28.7444086" lon="104.6608224"><ele>518.41</ele><time>2025-12-05T19:10:22.000Z</time></trkpt>
        <trkpt lat="28.7444874" lon="104.6608865"><ele>518.55</ele><time>2025-12-05T19:11:08.000Z</time></trkpt>
        <trkpt lat="28.7445602" lon="104.6609573"><ele>520.6</ele><time>2025-12-05T19:11:28.000Z</time></trkpt>
        <trkpt lat="28.7446386" lon="104.6610176"><ele>522.66</ele><time>2025-12-05T19:11:44.000Z</time></trkpt>
        <trkpt lat="28.7446723" lon="104.6611104"><ele>524.5</ele><time>2025-12-05T19:12:02.000Z</time></trkpt>
        <trkpt lat="28.744695" lon="104.6612131"><ele>524.11</ele><time>2025-12-05T19:12:14.000Z</time></trkpt>
        <trkpt lat="28.7447175" lon="104.6613159"><ele>522.64</ele><time>2025-12-05T19:12:24.000Z</time></trkpt>
        <trkpt lat="28.7447711" lon="104.6614059"><ele>521.4</ele><time>2025-12-05T19:12:36.000Z</time></trkpt>
        <trkpt lat="28.7448489" lon="104.6614695"><ele>522.5</ele><time>2025-12-05T19:12:52.000Z</time></trkpt>
        <trkpt lat="28.7449274" lon="104.6615288"><ele>522.76</ele><time>2025-12-05T19:13:08.000Z</time></trkpt>
        <trkpt lat="28.7450208" lon="104.6615414"><ele>523.64</ele><time>2025-12-05T19:13:24.000Z</time></trkpt>
        <trkpt lat="28.7451231" lon="104.661546"><ele>528.49</ele><time>2025-12-05T19:13:38.000Z</time></trkpt>
        <trkpt lat="28.7452276" lon="104.6615528"><ele>531.53</ele><time>2025-12-05T19:13:50.000Z</time></trkpt>
        <trkpt lat="28.7453198" lon="104.6616035"><ele>533.92</ele><time>2025-12-05T19:14:00.000Z</time></trkpt>
        <trkpt lat="28.7454026" lon="104.6616719"><ele>534.46</ele><time>2025-12-05T19:14:14.000Z</time></trkpt>
        <trkpt lat="28.745409" lon="104.6616092"><ele>533.14</ele><time>2025-12-05T19:14:18.000Z</time></trkpt>
        <trkpt lat="28.7454732" lon="104.6616154"><ele>532.71</ele><time>2025-12-05T19:14:26.000Z</time></trkpt>
        <trkpt lat="28.7455525" lon="104.6616609"><ele>533.83</ele><time>2025-12-05T19:14:36.000Z</time></trkpt>
        <trkpt lat="28.7456433" lon="104.6616951"><ele>534.39</ele><time>2025-12-05T19:14:52.000Z</time></trkpt>
        <trkpt lat="28.7457423" lon="104.6617345"><ele>534.79</ele><time>2025-12-05T19:15:04.000Z</time></trkpt>
        <trkpt lat="28.7458301" lon="104.6617819"><ele>534.8</ele><time>2025-12-05T19:15:14.000Z</time></trkpt>
        <trkpt lat="28.7459052" lon="104.6618529"><ele>534.33</ele><time>2025-12-05T19:15:24.000Z</time></trkpt>
        <trkpt lat="28.7459875" lon="104.6618963"><ele>534.08</ele><time>2025-12-05T19:15:32.000Z</time></trkpt>
        <trkpt lat="28.7460598" lon="104.6619649"><ele>533.66</ele><time>2025-12-05T19:15:46.000Z</time></trkpt>
        <trkpt lat="28.74615" lon="104.6620254"><ele>533.2</ele><time>2025-12-05T19:16:00.000Z</time></trkpt>
        <trkpt lat="28.7462255" lon="104.6621001"><ele>534.12</ele><time>2025-12-05T19:16:12.000Z</time></trkpt>
        <trkpt lat="28.7463055" lon="104.6621864"><ele>536.29</ele><time>2025-12-05T19:16:24.000Z</time></trkpt>
        <trkpt lat="28.7463729" lon="104.6622666"><ele>537</ele><time>2025-12-05T19:16:40.000Z</time></trkpt>
        <trkpt lat="28.7463783" lon="104.6623666"><ele>536.87</ele><time>2025-12-05T19:16:48.000Z</time></trkpt>
        <trkpt lat="28.7464011" lon="104.6624686"><ele>535.48</ele><time>2025-12-05T19:17:06.000Z</time></trkpt>
        <trkpt lat="28.7464564" lon="104.6625586"><ele>535.52</ele><time>2025-12-05T19:17:16.000Z</time></trkpt>
        <trkpt lat="28.7465295" lon="104.6626288"><ele>536.09</ele><time>2025-12-05T19:17:28.000Z</time></trkpt>
        <trkpt lat="28.746611" lon="104.6627005"><ele>538.24</ele><time>2025-12-05T19:17:46.000Z</time></trkpt>
        <trkpt lat="28.7466898" lon="104.6627717"><ele>541.21</ele><time>2025-12-05T19:18:00.000Z</time></trkpt>
        <trkpt lat="28.7467623" lon="104.6628459"><ele>542.49</ele><time>2025-12-05T19:18:10.000Z</time></trkpt>
        <trkpt lat="28.746805" lon="104.6629429"><ele>543.32</ele><time>2025-12-05T19:18:20.000Z</time></trkpt>
        <trkpt lat="28.7468251" lon="104.6630462"><ele>543.03</ele><time>2025-12-05T19:18:28.000Z</time></trkpt>
        <trkpt lat="28.7468363" lon="104.6631595"><ele>544.2</ele><time>2025-12-05T19:18:40.000Z</time></trkpt>
        <trkpt lat="28.7468314" lon="104.6632769"><ele>545.39</ele><time>2025-12-05T19:18:58.000Z</time></trkpt>
        <trkpt lat="28.7468665" lon="104.6633025"><ele>546.18</ele><time>2025-12-05T19:19:14.000Z</time></trkpt>
        <trkpt lat="28.7468567" lon="104.6633834"><ele>547.3</ele><time>2025-12-05T19:19:24.000Z</time></trkpt>
        <trkpt lat="28.7468582" lon="104.6635098"><ele>549.76</ele><time>2025-12-05T19:19:32.000Z</time></trkpt>
        <trkpt lat="28.7468634" lon="104.663627"><ele>549.46</ele><time>2025-12-05T19:19:42.000Z</time></trkpt>
        <trkpt lat="28.7468682" lon="104.6637466"><ele>549.75</ele><time>2025-12-05T19:19:52.000Z</time></trkpt>
        <trkpt lat="28.7468615" lon="104.6638547"><ele>550.24</ele><time>2025-12-05T19:20:02.000Z</time></trkpt>
        <trkpt lat="28.7469188" lon="104.6639471"><ele>551.51</ele><time>2025-12-05T19:20:12.000Z</time></trkpt>
        <trkpt lat="28.7470123" lon="104.66392"><ele>553.91</ele><time>2025-12-05T19:20:20.000Z</time></trkpt>
        <trkpt lat="28.7471208" lon="104.6639122"><ele>556.07</ele><time>2025-12-05T19:20:32.000Z</time></trkpt>
        <trkpt lat="28.7472285" lon="104.6639313"><ele>557.89</ele><time>2025-12-05T19:20:42.000Z</time></trkpt>
        <trkpt lat="28.7473105" lon="104.6639891"><ele>558.73</ele><time>2025-12-05T19:20:50.000Z</time></trkpt>
        <trkpt lat="28.7473975" lon="104.6639999"><ele>559.22</ele><time>2025-12-05T19:21:00.000Z</time></trkpt>
        <trkpt lat="28.7474855" lon="104.6640163"><ele>560.96</ele><time>2025-12-05T19:21:10.000Z</time></trkpt>
        <trkpt lat="28.7475719" lon="104.6640616"><ele>562.75</ele><time>2025-12-05T19:21:20.000Z</time></trkpt>
        <trkpt lat="28.747647" lon="104.6641417"><ele>563.94</ele><time>2025-12-05T19:21:30.000Z</time></trkpt>
        <trkpt lat="28.747718" lon="104.6642144"><ele>564.88</ele><time>2025-12-05T19:21:40.000Z</time></trkpt>
        <trkpt lat="28.7477715" lon="104.6643017"><ele>566.54</ele><time>2025-12-05T19:21:52.000Z</time></trkpt>
        <trkpt lat="28.7478179" lon="104.6644088"><ele>568.3</ele><time>2025-12-05T19:22:08.000Z</time></trkpt>
        <trkpt lat="28.7478708" lon="104.6645079"><ele>570.38</ele><time>2025-12-05T19:22:22.000Z</time></trkpt>
        <trkpt lat="28.7479517" lon="104.6645376"><ele>572.11</ele><time>2025-12-05T19:22:32.000Z</time></trkpt>
        <trkpt lat="28.7480501" lon="104.6645109"><ele>573.3</ele><time>2025-12-05T19:22:42.000Z</time></trkpt>
        <trkpt lat="28.7481557" lon="104.6644522"><ele>574.79</ele><time>2025-12-05T19:22:52.000Z</time></trkpt>
        <trkpt lat="28.7482411" lon="104.6643777"><ele>576.53</ele><time>2025-12-05T19:23:00.000Z</time></trkpt>
        <trkpt lat="28.7483243" lon="104.6643975"><ele>576.36</ele><time>2025-12-05T19:23:10.000Z</time></trkpt>
        <trkpt lat="28.7483848" lon="104.6644736"><ele>575.28</ele><time>2025-12-05T19:23:20.000Z</time></trkpt>
        <trkpt lat="28.7484272" lon="104.6645744"><ele>574.13</ele><time>2025-12-05T19:23:36.000Z</time></trkpt>
        <trkpt lat="28.7484337" lon="104.6646201"><ele>573.21</ele><time>2025-12-05T19:23:40.000Z</time></trkpt>
        <trkpt lat="28.7484923" lon="104.6646974"><ele>573.71</ele><time>2025-12-05T19:25:58.000Z</time></trkpt>
        <trkpt lat="28.7483886" lon="104.6647082"><ele>573</ele><time>2025-12-05T19:26:44.000Z</time></trkpt>
        <trkpt lat="28.7483114" lon="104.6647958"><ele>571.94</ele><time>2025-12-05T19:27:34.000Z</time></trkpt>
        <trkpt lat="28.7482848" lon="104.6647983"><ele>572.43</ele><time>2025-12-05T19:27:38.000Z</time></trkpt>
        <trkpt lat="28.7483774" lon="104.6647202"><ele>572.91</ele><time>2025-12-05T19:28:42.000Z</time></trkpt>
        <trkpt lat="28.7483447" lon="104.6648168"><ele>571.94</ele><time>2025-12-05T19:53:18.000Z</time></trkpt>
        <trkpt lat="28.748325" lon="104.6649222"><ele>575.13</ele><time>2025-12-05T19:53:30.000Z</time></trkpt>
        <trkpt lat="28.7482511" lon="104.6649524"><ele>577.49</ele><time>2025-12-05T19:53:46.000Z</time></trkpt>
        <trkpt lat="28.7481608" lon="104.6648923"><ele>578.23</ele><time>2025-12-05T19:58:59.000Z</time></trkpt>
        <trkpt lat="28.7482037" lon="104.6648015"><ele>581.78</ele><time>2025-12-05T20:00:43.000Z</time></trkpt>
        <trkpt lat="28.7482953" lon="104.6648269"><ele>586.02</ele><time>2025-12-05T20:01:11.000Z</time></trkpt>
        <trkpt lat="28.7483971" lon="104.6648323"><ele>586.27</ele><time>2025-12-05T20:01:37.000Z</time></trkpt>
        <trkpt lat="28.7484708" lon="104.6647932"><ele>586.84</ele><time>2025-12-05T20:01:51.000Z</time></trkpt>
        <trkpt lat="28.7484591" lon="104.6646918"><ele>586.3</ele><time>2025-12-05T20:02:09.000Z</time></trkpt>
        <trkpt lat="28.7484479" lon="104.6647616"><ele>584.89</ele><time>2025-12-05T20:03:17.000Z</time></trkpt>
        <trkpt lat="28.7484318" lon="104.6647645"><ele>582.94</ele><time>2025-12-05T20:03:19.000Z</time></trkpt>
        <trkpt lat="28.7483712" lon="104.664687"><ele>581.97</ele><time>2025-12-05T20:10:53.000Z</time></trkpt>
        <trkpt lat="28.7483724" lon="104.6646837"><ele>576.95</ele><time>2025-12-05T20:10:55.000Z</time></trkpt>
        <trkpt lat="28.7484048" lon="104.6647826"><ele>574.04</ele><time>2025-12-05T20:13:31.000Z</time></trkpt>
        <trkpt lat="28.748468" lon="104.6648703"><ele>573.23</ele><time>2025-12-05T20:13:57.000Z</time></trkpt>
        <trkpt lat="28.7485201" lon="104.6649655"><ele>573.92</ele><time>2025-12-05T20:14:11.000Z</time></trkpt>
        <trkpt lat="28.748603" lon="104.6650031"><ele>572.41</ele><time>2025-12-05T20:14:27.000Z</time></trkpt>
        <trkpt lat="28.748695" lon="104.6650429"><ele>572.05</ele><time>2025-12-05T20:14:43.000Z</time></trkpt>
        <trkpt lat="28.7487569" lon="104.6649745"><ele>573.3</ele><time>2025-12-05T20:14:57.000Z</time></trkpt>
        <trkpt lat="28.7488368" lon="104.6649606"><ele>574.76</ele><time>2025-12-05T20:15:31.000Z</time></trkpt>
        <trkpt lat="28.7489217" lon="104.6650051"><ele>571.42</ele><time>2025-12-05T20:15:57.000Z</time></trkpt>
        <trkpt lat="28.7490214" lon="104.6650721"><ele>570.57</ele><time>2025-12-05T20:16:07.000Z</time></trkpt>
        <trkpt lat="28.7491089" lon="104.6651531"><ele>569.57</ele><time>2025-12-05T20:16:19.000Z</time></trkpt>
        <trkpt lat="28.7491752" lon="104.6652364"><ele>568.8</ele><time>2025-12-05T20:16:49.000Z</time></trkpt>
        <trkpt lat="28.749252" lon="104.6653223"><ele>566.39</ele><time>2025-12-05T20:17:07.000Z</time></trkpt>
        <trkpt lat="28.749328" lon="104.6653898"><ele>564.55</ele><time>2025-12-05T20:17:19.000Z</time></trkpt>
        <trkpt lat="28.7494005" lon="104.6654558"><ele>563.76</ele><time>2025-12-05T20:17:29.000Z</time></trkpt>
        <trkpt lat="28.7494261" lon="104.6654944"><ele>564.71</ele><time>2025-12-05T20:17:39.000Z</time></trkpt>
        <trkpt lat="28.7494586" lon="104.6655759"><ele>565.08</ele><time>2025-12-05T20:17:51.000Z</time></trkpt>
        <trkpt lat="28.7494619" lon="104.6656198"><ele>563.51</ele><time>2025-12-05T20:17:57.000Z</time></trkpt>
        <trkpt lat="28.7494915" lon="104.6656958"><ele>562.19</ele><time>2025-12-05T20:18:05.000Z</time></trkpt>
        <trkpt lat="28.7495633" lon="104.6656875"><ele>562.04</ele><time>2025-12-05T20:18:21.000Z</time></trkpt>
        <trkpt lat="28.7496601" lon="104.6656936"><ele>562.1</ele><time>2025-12-05T20:18:33.000Z</time></trkpt>
        <trkpt lat="28.7497457" lon="104.6657452"><ele>563.12</ele><time>2025-12-05T20:18:47.000Z</time></trkpt>
        <trkpt lat="28.7497941" lon="104.6658435"><ele>562.17</ele><time>2025-12-05T20:19:03.000Z</time></trkpt>
        <trkpt lat="28.7498055" lon="104.6659554"><ele>562.49</ele><time>2025-12-05T20:19:17.000Z</time></trkpt>
        <trkpt lat="28.7498224" lon="104.6660685"><ele>562.8</ele><time>2025-12-05T20:19:27.000Z</time></trkpt>
        <trkpt lat="28.7498727" lon="104.6661825"><ele>563.05</ele><time>2025-12-05T20:19:37.000Z</time></trkpt>
        <trkpt lat="28.7499333" lon="104.666271"><ele>562.19</ele><time>2025-12-05T20:19:45.000Z</time></trkpt>
        <trkpt lat="28.7499572" lon="104.6661899"><ele>561.09</ele><time>2025-12-05T20:19:55.000Z</time></trkpt>
        <trkpt lat="28.7499597" lon="104.6662056"><ele>558.59</ele><time>2025-12-05T20:19:59.000Z</time></trkpt>
        <trkpt lat="28.7499085" lon="104.6662669"><ele>557.7</ele><time>2025-12-05T20:20:19.000Z</time></trkpt>
        <trkpt lat="28.7498977" lon="104.6663667"><ele>553.53</ele><time>2025-12-05T20:20:27.000Z</time></trkpt>
        <trkpt lat="28.7499375" lon="104.666461"><ele>551.78</ele><time>2025-12-05T20:20:33.000Z</time></trkpt>
        <trkpt lat="28.7500161" lon="104.6665237"><ele>552.25</ele><time>2025-12-05T20:20:37.000Z</time></trkpt>
        <trkpt lat="28.7501136" lon="104.6665909"><ele>553.13</ele><time>2025-12-05T20:20:43.000Z</time></trkpt>
        <trkpt lat="28.7502049" lon="104.6666726"><ele>555.13</ele><time>2025-12-05T20:20:51.000Z</time></trkpt>
        <trkpt lat="28.7502795" lon="104.6667595"><ele>556.4</ele><time>2025-12-05T20:20:59.000Z</time></trkpt>
        <trkpt lat="28.7503371" lon="104.6668495"><ele>558.92</ele><time>2025-12-05T20:21:11.000Z</time></trkpt>
        <trkpt lat="28.7504104" lon="104.6669171"><ele>560.06</ele><time>2025-12-05T20:21:21.000Z</time></trkpt>
        <trkpt lat="28.7504464" lon="104.6669325"><ele>559.89</ele><time>2025-12-05T20:21:25.000Z</time></trkpt>
        <trkpt lat="28.7504869" lon="104.6670002"><ele>556.45</ele><time>2025-12-05T20:21:53.000Z</time></trkpt>
        <trkpt lat="28.7505434" lon="104.6670898"><ele>555.98</ele><time>2025-12-05T20:22:01.000Z</time></trkpt>
        <trkpt lat="28.7506156" lon="104.6671843"><ele>556.63</ele><time>2025-12-05T20:22:09.000Z</time></trkpt>
        <trkpt lat="28.7506577" lon="104.6673051"><ele>557.27</ele><time>2025-12-05T20:22:19.000Z</time></trkpt>
        <trkpt lat="28.7506964" lon="104.6674221"><ele>558.13</ele><time>2025-12-05T20:22:31.000Z</time></trkpt>
        <trkpt lat="28.7507242" lon="104.6675274"><ele>558.31</ele><time>2025-12-05T20:22:39.000Z</time></trkpt>
        <trkpt lat="28.7507438" lon="104.6676286"><ele>558.43</ele><time>2025-12-05T20:22:45.000Z</time></trkpt>
        <trkpt lat="28.7508056" lon="104.6676997"><ele>558.67</ele><time>2025-12-05T20:22:53.000Z</time></trkpt>
        <trkpt lat="28.7508712" lon="104.6677759"><ele>558.55</ele><time>2025-12-05T20:23:07.000Z</time></trkpt>
        <trkpt lat="28.7509655" lon="104.6678372"><ele>557.22</ele><time>2025-12-05T20:23:27.000Z</time></trkpt>
        <trkpt lat="28.7510163" lon="104.6677722"><ele>555.49</ele><time>2025-12-05T20:23:39.000Z</time></trkpt>
        <trkpt lat="28.7510948" lon="104.667705"><ele>552.85</ele><time>2025-12-05T20:23:55.000Z</time></trkpt>
        <trkpt lat="28.7511947" lon="104.667636"><ele>549.54</ele><time>2025-12-05T20:24:19.000Z</time></trkpt>
        <trkpt lat="28.7512199" lon="104.6675216"><ele>546.81</ele><time>2025-12-05T20:24:31.000Z</time></trkpt>
        <trkpt lat="28.7511903" lon="104.667406"><ele>543.72</ele><time>2025-12-05T20:24:41.000Z</time></trkpt>
        <trkpt lat="28.7511551" lon="104.6672873"><ele>541.43</ele><time>2025-12-05T20:24:53.000Z</time></trkpt>
        <trkpt lat="28.751208" lon="104.6672628"><ele>540.28</ele><time>2025-12-05T20:25:09.000Z</time></trkpt>
        <trkpt lat="28.7513022" lon="104.6672875"><ele>538.14</ele><time>2025-12-05T20:25:49.000Z</time></trkpt>
        <trkpt lat="28.7513652" lon="104.6672498"><ele>528.9</ele><time>2025-12-05T20:26:11.000Z</time></trkpt>
        <trkpt lat="28.7512845" lon="104.6672017"><ele>523.82</ele><time>2025-12-05T20:27:19.000Z</time></trkpt>
        <trkpt lat="28.751262" lon="104.6671008"><ele>521.63</ele><time>2025-12-05T20:28:07.000Z</time></trkpt>
        <trkpt lat="28.75125" lon="104.6669935"><ele>520.21</ele><time>2025-12-05T20:28:17.000Z</time></trkpt>
        <trkpt lat="28.7511838" lon="104.6669031"><ele>519.38</ele><time>2025-12-05T20:28:25.000Z</time></trkpt>
        <trkpt lat="28.7511288" lon="104.6667993"><ele>518.73</ele><time>2025-12-05T20:28:35.000Z</time></trkpt>
        <trkpt lat="28.7510694" lon="104.6667027"><ele>518.88</ele><time>2025-12-05T20:28:45.000Z</time></trkpt>
        <trkpt lat="28.7510099" lon="104.6666096"><ele>519.19</ele><time>2025-12-05T20:28:55.000Z</time></trkpt>
        <trkpt lat="28.7509419" lon="104.6665242"><ele>519.14</ele><time>2025-12-05T20:29:07.000Z</time></trkpt>
        <trkpt lat="28.7508613" lon="104.6664712"><ele>520.22</ele><time>2025-12-05T20:29:19.000Z</time></trkpt>
        <trkpt lat="28.7507909" lon="104.6663898"><ele>519.46</ele><time>2025-12-05T20:29:29.000Z</time></trkpt>
        <trkpt lat="28.750739" lon="104.6663513"><ele>517.88</ele><time>2025-12-05T20:29:39.000Z</time></trkpt>
        <trkpt lat="28.7507266" lon="104.6662607"><ele>515.31</ele><time>2025-12-05T20:29:51.000Z</time></trkpt>
        <trkpt lat="28.7508013" lon="104.6662516"><ele>514.22</ele><time>2025-12-05T20:30:11.000Z</time></trkpt>
        <trkpt lat="28.7508852" lon="104.666318"><ele>513.45</ele><time>2025-12-05T20:30:23.000Z</time></trkpt>
        <trkpt lat="28.750988" lon="104.6663651"><ele>511.98</ele><time>2025-12-05T20:30:39.000Z</time></trkpt>
        <trkpt lat="28.7510918" lon="104.6663892"><ele>508.94</ele><time>2025-12-05T20:30:49.000Z</time></trkpt>
        <trkpt lat="28.7511983" lon="104.6664101"><ele>506.65</ele><time>2025-12-05T20:30:59.000Z</time></trkpt>
        <trkpt lat="28.7512992" lon="104.66641"><ele>504.84</ele><time>2025-12-05T20:31:09.000Z</time></trkpt>
        <trkpt lat="28.7514045" lon="104.6664004"><ele>503.22</ele><time>2025-12-05T20:31:19.000Z</time></trkpt>
        <trkpt lat="28.7514953" lon="104.6663389"><ele>502.71</ele><time>2025-12-05T20:31:31.000Z</time></trkpt>
        <trkpt lat="28.7514425" lon="104.6663225"><ele>503.09</ele><time>2025-12-05T20:31:41.000Z</time></trkpt>
        <trkpt lat="28.7513979" lon="104.6664024"><ele>501.78</ele><time>2025-12-05T20:31:51.000Z</time></trkpt>
        <trkpt lat="28.7514049" lon="104.6665105"><ele>494.81</ele><time>2025-12-05T20:32:01.000Z</time></trkpt>
        <trkpt lat="28.7514462" lon="104.6666206"><ele>492.28</ele><time>2025-12-05T20:32:11.000Z</time></trkpt>
        <trkpt lat="28.7515295" lon="104.6666993"><ele>489.7</ele><time>2025-12-05T20:32:27.000Z</time></trkpt>
        <trkpt lat="28.7516508" lon="104.6667291"><ele>483.75</ele><time>2025-12-05T20:32:33.000Z</time></trkpt>
        <trkpt lat="28.7517564" lon="104.6667435"><ele>481.31</ele><time>2025-12-05T20:32:39.000Z</time></trkpt>
        <trkpt lat="28.7518508" lon="104.6667693"><ele>479.67</ele><time>2025-12-05T20:32:45.000Z</time></trkpt>
        <trkpt lat="28.7519462" lon="104.6668098"><ele>479.88</ele><time>2025-12-05T20:32:53.000Z</time></trkpt>
        <trkpt lat="28.752033" lon="104.6668713"><ele>481.14</ele><time>2025-12-05T20:33:01.000Z</time></trkpt>
        <trkpt lat="28.7520991" lon="104.6669502"><ele>483.39</ele><time>2025-12-05T20:33:09.000Z</time></trkpt>
        <trkpt lat="28.7521553" lon="104.6670555"><ele>486.97</ele><time>2025-12-05T20:33:19.000Z</time></trkpt>
        <trkpt lat="28.752209" lon="104.6671483"><ele>491.42</ele><time>2025-12-05T20:33:25.000Z</time></trkpt>
        <trkpt lat="28.7522007" lon="104.6672517"><ele>496.6</ele><time>2025-12-05T20:33:35.000Z</time></trkpt>
        <trkpt lat="28.7521652" lon="104.6673599"><ele>500.9</ele><time>2025-12-05T20:33:45.000Z</time></trkpt>
        <trkpt lat="28.7521261" lon="104.6674654"><ele>504.41</ele><time>2025-12-05T20:33:55.000Z</time></trkpt>
        <trkpt lat="28.752188" lon="104.6675086"><ele>508.01</ele><time>2025-12-05T20:34:01.000Z</time></trkpt>
        <trkpt lat="28.7521726" lon="104.6675789"><ele>507.37</ele><time>2025-12-05T20:34:11.000Z</time></trkpt>
        <trkpt lat="28.7521584" lon="104.6676886"><ele>507.01</ele><time>2025-12-05T20:34:23.000Z</time></trkpt>
        <trkpt lat="28.7521539" lon="104.6678027"><ele>505.89</ele><time>2025-12-05T20:34:35.000Z</time></trkpt>
        <trkpt lat="28.752202" lon="104.6678893"><ele>505.08</ele><time>2025-12-05T20:34:45.000Z</time></trkpt>
        <trkpt lat="28.7522929" lon="104.6679162"><ele>503.9</ele><time>2025-12-05T20:34:55.000Z</time></trkpt>
        <trkpt lat="28.7523829" lon="104.6679271"><ele>502.47</ele><time>2025-12-05T20:35:07.000Z</time></trkpt>
        <trkpt lat="28.7524828" lon="104.6679176"><ele>502.02</ele><time>2025-12-05T20:35:37.000Z</time></trkpt>
        <trkpt lat="28.7525835" lon="104.6679065"><ele>500.84</ele><time>2025-12-05T20:36:17.000Z</time></trkpt>
        <trkpt lat="28.7526785" lon="104.6678974"><ele>501.68</ele><time>2025-12-05T20:36:37.000Z</time></trkpt>
        <trkpt lat="28.7527687" lon="104.66793"><ele>503.4</ele><time>2025-12-05T20:36:51.000Z</time></trkpt>
        <trkpt lat="28.7528483" lon="104.6679947"><ele>505.36</ele><time>2025-12-05T20:37:11.000Z</time></trkpt>
        <trkpt lat="28.7528898" lon="104.6680964"><ele>506.55</ele><time>2025-12-05T20:37:23.000Z</time></trkpt>
        <trkpt lat="28.7529295" lon="104.6681991"><ele>507.42</ele><time>2025-12-05T20:37:35.000Z</time></trkpt>
        <trkpt lat="28.7529417" lon="104.6683144"><ele>508.96</ele><time>2025-12-05T20:37:47.000Z</time></trkpt>
        <trkpt lat="28.7529502" lon="104.6684316"><ele>511.53</ele><time>2025-12-05T20:37:59.000Z</time></trkpt>
        <trkpt lat="28.7529727" lon="104.6685361"><ele>513.95</ele><time>2025-12-05T20:38:15.000Z</time></trkpt>
        <trkpt lat="28.7530197" lon="104.6686245"><ele>514.69</ele><time>2025-12-05T20:38:29.000Z</time></trkpt>
        <trkpt lat="28.7530977" lon="104.6686816"><ele>517.35</ele><time>2025-12-05T20:38:41.000Z</time></trkpt>
        <trkpt lat="28.753189" lon="104.6687334"><ele>518.51</ele><time>2025-12-05T20:38:55.000Z</time></trkpt>
        <trkpt lat="28.7532817" lon="104.6687925"><ele>520.14</ele><time>2025-12-05T20:39:07.000Z</time></trkpt>
        <trkpt lat="28.7533838" lon="104.6688245"><ele>520.91</ele><time>2025-12-05T20:39:19.000Z</time></trkpt>
        <trkpt lat="28.7534783" lon="104.6688812"><ele>522.49</ele><time>2025-12-05T20:39:31.000Z</time></trkpt>
        <trkpt lat="28.7535676" lon="104.668919"><ele>524.13</ele><time>2025-12-05T20:39:45.000Z</time></trkpt>
        <trkpt lat="28.7536681" lon="104.6689502"><ele>525.29</ele><time>2025-12-05T20:40:05.000Z</time></trkpt>
        <trkpt lat="28.7537664" lon="104.6689956"><ele>526.36</ele><time>2025-12-05T20:40:17.000Z</time></trkpt>
        <trkpt lat="28.7538562" lon="104.6690412"><ele>526.22</ele><time>2025-12-05T20:40:27.000Z</time></trkpt>
        <trkpt lat="28.7539493" lon="104.6690717"><ele>527.06</ele><time>2025-12-05T20:40:37.000Z</time></trkpt>
        <trkpt lat="28.7539686" lon="104.6690807"><ele>528.72</ele><time>2025-12-05T20:40:41.000Z</time></trkpt>
        <trkpt lat="28.754037" lon="104.6690946"><ele>528.96</ele><time>2025-12-05T20:40:57.000Z</time></trkpt>
        <trkpt lat="28.7541121" lon="104.6691546"><ele>528.58</ele><time>2025-12-05T20:41:09.000Z</time></trkpt>
        <trkpt lat="28.754172" lon="104.6692387"><ele>527.59</ele><time>2025-12-05T20:41:21.000Z</time></trkpt>
        <trkpt lat="28.7541827" lon="104.6693422"><ele>526.82</ele><time>2025-12-05T20:41:33.000Z</time></trkpt>
        <trkpt lat="28.754213" lon="104.669441"><ele>525.7</ele><time>2025-12-05T20:41:53.000Z</time></trkpt>
        <trkpt lat="28.754242" lon="104.6695639"><ele>522.35</ele><time>2025-12-05T20:42:03.000Z</time></trkpt>
        <trkpt lat="28.7542712" lon="104.6696755"><ele>521.56</ele><time>2025-12-05T20:42:11.000Z</time></trkpt>
        <trkpt lat="28.7542973" lon="104.6697816"><ele>521.87</ele><time>2025-12-05T20:42:21.000Z</time></trkpt>
        <trkpt lat="28.754326" lon="104.6698855"><ele>522.6</ele><time>2025-12-05T20:42:31.000Z</time></trkpt>
        <trkpt lat="28.754368" lon="104.6699795"><ele>523.51</ele><time>2025-12-05T20:42:41.000Z</time></trkpt>
        <trkpt lat="28.7544421" lon="104.6700624"><ele>523.73</ele><time>2025-12-05T20:42:53.000Z</time></trkpt>
        <trkpt lat="28.7545317" lon="104.6701322"><ele>522.93</ele><time>2025-12-05T20:43:05.000Z</time></trkpt>
        <trkpt lat="28.7546197" lon="104.6701853"><ele>521.7</ele><time>2025-12-05T20:43:17.000Z</time></trkpt>
        <trkpt lat="28.7547106" lon="104.6702101"><ele>518.65</ele><time>2025-12-05T20:43:29.000Z</time></trkpt>
        <trkpt lat="28.7548092" lon="104.6701498"><ele>516.15</ele><time>2025-12-05T20:45:45.000Z</time></trkpt>
        <trkpt lat="28.7548507" lon="104.6701676"><ele>519.8</ele><time>2025-12-05T20:45:49.000Z</time></trkpt>
        <trkpt lat="28.7547494" lon="104.6701594"><ele>521.12</ele><time>2025-12-05T20:46:53.000Z</time></trkpt>
        <trkpt lat="28.7547224" lon="104.6701577"><ele>520.67</ele><time>2025-12-05T20:46:59.000Z</time></trkpt>
        <trkpt lat="28.7546352" lon="104.6701373"><ele>520.93</ele><time>2025-12-05T20:47:41.000Z</time></trkpt>
        <trkpt lat="28.7545487" lon="104.6701004"><ele>520.13</ele><time>2025-12-05T20:48:19.000Z</time></trkpt>
        <trkpt lat="28.7544585" lon="104.6700472"><ele>519.17</ele><time>2025-12-05T20:48:39.000Z</time></trkpt>
        <trkpt lat="28.7543736" lon="104.6699734"><ele>518.36</ele><time>2025-12-05T20:48:53.000Z</time></trkpt>
        <trkpt lat="28.7543087" lon="104.669881"><ele>517.34</ele><time>2025-12-05T20:49:07.000Z</time></trkpt>
        <trkpt lat="28.7542635" lon="104.6697798"><ele>517.45</ele><time>2025-12-05T20:49:45.000Z</time></trkpt>
        <trkpt lat="28.7542503" lon="104.6696634"><ele>518.77</ele><time>2025-12-05T20:49:59.000Z</time></trkpt>
        <trkpt lat="28.7542367" lon="104.6695548"><ele>519.82</ele><time>2025-12-05T20:50:11.000Z</time></trkpt>
        <trkpt lat="28.7542096" lon="104.669443"><ele>520.69</ele><time>2025-12-05T20:50:23.000Z</time></trkpt>
        <trkpt lat="28.7541773" lon="104.6693396"><ele>521.21</ele><time>2025-12-05T20:50:33.000Z</time></trkpt>
        <trkpt lat="28.7541375" lon="104.6692438"><ele>522.72</ele><time>2025-12-05T20:50:43.000Z</time></trkpt>
        <trkpt lat="28.7540672" lon="104.6691725"><ele>523.62</ele><time>2025-12-05T20:50:53.000Z</time></trkpt>
        <trkpt lat="28.7539994" lon="104.6690929"><ele>525.21</ele><time>2025-12-05T20:51:03.000Z</time></trkpt>
        <trkpt lat="28.7539204" lon="104.6690161"><ele>525.64</ele><time>2025-12-05T20:51:13.000Z</time></trkpt>
        <trkpt lat="28.7538271" lon="104.6689723"><ele>526.07</ele><time>2025-12-05T20:51:25.000Z</time></trkpt>
        <trkpt lat="28.7537305" lon="104.6689345"><ele>526.73</ele><time>2025-12-05T20:51:37.000Z</time></trkpt>
        <trkpt lat="28.753701" lon="104.6689422"><ele>526.96</ele><time>2025-12-05T20:51:47.000Z</time></trkpt>
        <trkpt lat="28.7536385" lon="104.668918"><ele>527.16</ele><time>2025-12-05T20:51:55.000Z</time></trkpt>
        <trkpt lat="28.7535558" lon="104.6688944"><ele>528.14</ele><time>2025-12-05T20:52:05.000Z</time></trkpt>
        <trkpt lat="28.7534727" lon="104.6688532"><ele>528.06</ele><time>2025-12-05T20:52:17.000Z</time></trkpt>
        <trkpt lat="28.7533811" lon="104.6688371"><ele>528.74</ele><time>2025-12-05T20:52:37.000Z</time></trkpt>
        <trkpt lat="28.7532873" lon="104.6688123"><ele>530.34</ele><time>2025-12-05T20:52:53.000Z</time></trkpt>
        <trkpt lat="28.7532048" lon="104.6687648"><ele>531.93</ele><time>2025-12-05T20:53:05.000Z</time></trkpt>
        <trkpt lat="28.7531246" lon="104.6686953"><ele>532.54</ele><time>2025-12-05T20:53:17.000Z</time></trkpt>
        <trkpt lat="28.7530468" lon="104.6686049"><ele>531.45</ele><time>2025-12-05T20:53:29.000Z</time></trkpt>
        <trkpt lat="28.7529748" lon="104.6685298"><ele>529.46</ele><time>2025-12-05T20:53:35.000Z</time></trkpt>
        <trkpt lat="28.7529125" lon="104.6684374"><ele>528.27</ele><time>2025-12-05T20:53:43.000Z</time></trkpt>
        <trkpt lat="28.7528714" lon="104.668335"><ele>526.47</ele><time>2025-12-05T20:53:51.000Z</time></trkpt>
        <trkpt lat="28.7528623" lon="104.6682248"><ele>524.56</ele><time>2025-12-05T20:53:59.000Z</time></trkpt>
        <trkpt lat="28.7528453" lon="104.6681205"><ele>521.82</ele><time>2025-12-05T20:54:09.000Z</time></trkpt>
        <trkpt lat="28.7528425" lon="104.6680704"><ele>518.52</ele><time>2025-12-05T20:54:15.000Z</time></trkpt>
        <trkpt lat="28.7528377" lon="104.6679693"><ele>516.63</ele><time>2025-12-05T20:54:27.000Z</time></trkpt>
        <trkpt lat="28.7527717" lon="104.6678941"><ele>516.27</ele><time>2025-12-05T20:54:37.000Z</time></trkpt>
        <trkpt lat="28.7526776" lon="104.6678714"><ele>514.99</ele><time>2025-12-05T20:54:47.000Z</time></trkpt>
        <trkpt lat="28.7525813" lon="104.6678907"><ele>513.2</ele><time>2025-12-05T20:54:57.000Z</time></trkpt>
        <trkpt lat="28.752486" lon="104.6679304"><ele>510.97</ele><time>2025-12-05T20:55:11.000Z</time></trkpt>
        <trkpt lat="28.7524761" lon="104.6679396"><ele>508.16</ele><time>2025-12-05T20:55:15.000Z</time></trkpt>
        <trkpt lat="28.7524187" lon="104.6680104"><ele>506.67</ele><time>2025-12-05T20:56:33.000Z</time></trkpt>
        <trkpt lat="28.7524531" lon="104.6680674"><ele>505.12</ele><time>2025-12-05T20:56:41.000Z</time></trkpt>
        <trkpt lat="28.7524968" lon="104.668153"><ele>503.07</ele><time>2025-12-05T20:56:51.000Z</time></trkpt>
        <trkpt lat="28.7525309" lon="104.668084"><ele>502.81</ele><time>2025-12-05T20:56:55.000Z</time></trkpt>
        <trkpt lat="28.7525164" lon="104.6680401"><ele>502.11</ele><time>2025-12-05T20:57:09.000Z</time></trkpt>
        <trkpt lat="28.7525427" lon="104.6681211"><ele>502.24</ele><time>2025-12-05T20:58:53.000Z</time></trkpt>
        <trkpt lat="28.7524857" lon="104.6682233"><ele>500.75</ele><time>2025-12-05T20:59:09.000Z</time></trkpt>
        <trkpt lat="28.7524686" lon="104.6683334"><ele>499.42</ele><time>2025-12-05T20:59:15.000Z</time></trkpt>
        <trkpt lat="28.7524805" lon="104.6684365"><ele>498.81</ele><time>2025-12-05T20:59:21.000Z</time></trkpt>
        <trkpt lat="28.7525219" lon="104.6685343"><ele>499.16</ele><time>2025-12-05T20:59:31.000Z</time></trkpt>
        <trkpt lat="28.752558" lon="104.6686452"><ele>498.24</ele><time>2025-12-05T20:59:41.000Z</time></trkpt>
        <trkpt lat="28.7525997" lon="104.6687565"><ele>497.79</ele><time>2025-12-05T20:59:51.000Z</time></trkpt>
        <trkpt lat="28.7526658" lon="104.6688371"><ele>496.51</ele><time>2025-12-05T20:59:59.000Z</time></trkpt>
        <trkpt lat="28.7526858" lon="104.6689456"><ele>495.95</ele><time>2025-12-05T21:00:07.000Z</time></trkpt>
        <trkpt lat="28.7527066" lon="104.669055"><ele>495.09</ele><time>2025-12-05T21:00:15.000Z</time></trkpt>
        <trkpt lat="28.7527542" lon="104.6691458"><ele>493.8</ele><time>2025-12-05T21:00:23.000Z</time></trkpt>
        <trkpt lat="28.7528244" lon="104.6692466"><ele>492.01</ele><time>2025-12-05T21:00:31.000Z</time></trkpt>
        <trkpt lat="28.7529086" lon="104.6693419"><ele>489.83</ele><time>2025-12-05T21:00:37.000Z</time></trkpt>
        <trkpt lat="28.7529592" lon="104.6694379"><ele>489.38</ele><time>2025-12-05T21:00:49.000Z</time></trkpt>
        <trkpt lat="28.7529398" lon="104.669537"><ele>485.7</ele><time>2025-12-05T21:00:57.000Z</time></trkpt>
        <trkpt lat="28.7529341" lon="104.6695666"><ele>483.42</ele><time>2025-12-05T21:01:01.000Z</time></trkpt>
        <trkpt lat="28.7529162" lon="104.66965"><ele>481.69</ele><time>2025-12-05T21:01:13.000Z</time></trkpt>
        <trkpt lat="28.75291" lon="104.6696822"><ele>481.17</ele><time>2025-12-05T21:01:17.000Z</time></trkpt>
        <trkpt lat="28.7529256" lon="104.6697651"><ele>479.29</ele><time>2025-12-05T21:01:35.000Z</time></trkpt>
        <trkpt lat="28.7529378" lon="104.6698696"><ele>478.8</ele><time>2025-12-05T21:01:43.000Z</time></trkpt>
        <trkpt lat="28.7529613" lon="104.6699742"><ele>478.38</ele><time>2025-12-05T21:01:53.000Z</time></trkpt>
        <trkpt lat="28.7529667" lon="104.6700808"><ele>477.18</ele><time>2025-12-05T21:02:03.000Z</time></trkpt>
        <trkpt lat="28.7529481" lon="104.6701888"><ele>476.63</ele><time>2025-12-05T21:02:13.000Z</time></trkpt>
        <trkpt lat="28.7529115" lon="104.6702958"><ele>478.05</ele><time>2025-12-05T21:02:23.000Z</time></trkpt>
        <trkpt lat="28.7529251" lon="104.670303"><ele>477.29</ele><time>2025-12-05T21:02:25.000Z</time></trkpt>
        <trkpt lat="28.7529255" lon="104.670376"><ele>476.34</ele><time>2025-12-05T21:02:39.000Z</time></trkpt>
        <trkpt lat="28.7528767" lon="104.6704648"><ele>475.76</ele><time>2025-12-05T21:02:49.000Z</time></trkpt>
        <trkpt lat="28.7528159" lon="104.6705597"><ele>475.08</ele><time>2025-12-05T21:03:05.000Z</time></trkpt>
        <trkpt lat="28.7527531" lon="104.670647"><ele>475.64</ele><time>2025-12-05T21:03:17.000Z</time></trkpt>
        <trkpt lat="28.7526693" lon="104.6707166"><ele>475.66</ele><time>2025-12-05T21:04:27.000Z</time></trkpt>
        <trkpt lat="28.7525745" lon="104.670765"><ele>471.52</ele><time>2025-12-05T21:04:41.000Z</time></trkpt>
        <trkpt lat="28.7524846" lon="104.670834"><ele>467.12</ele><time>2025-12-05T21:04:51.000Z</time></trkpt>
        <trkpt lat="28.7524242" lon="104.6709373"><ele>463.36</ele><time>2025-12-05T21:05:01.000Z</time></trkpt>
        <trkpt lat="28.7524092" lon="104.6710056"><ele>459.98</ele><time>2025-12-05T21:05:09.000Z</time></trkpt>
        <trkpt lat="28.7523913" lon="104.671103"><ele>455.94</ele><time>2025-12-05T21:05:23.000Z</time></trkpt>
        <trkpt lat="28.7523884" lon="104.6711359"><ele>456.12</ele><time>2025-12-05T21:05:27.000Z</time></trkpt>
        <trkpt lat="28.7523949" lon="104.6712272"><ele>455.45</ele><time>2025-12-05T21:05:47.000Z</time></trkpt>
        <trkpt lat="28.7524112" lon="104.6713317"><ele>452.41</ele><time>2025-12-05T21:06:01.000Z</time></trkpt>
        <trkpt lat="28.7524121" lon="104.6714389"><ele>450.38</ele><time>2025-12-05T21:06:11.000Z</time></trkpt>
        <trkpt lat="28.7523792" lon="104.6715475"><ele>448.68</ele><time>2025-12-05T21:06:23.000Z</time></trkpt>
        <trkpt lat="28.7523312" lon="104.6716478"><ele>446.57</ele><time>2025-12-05T21:06:33.000Z</time></trkpt>
        <trkpt lat="28.7523005" lon="104.6717532"><ele>445.24</ele><time>2025-12-05T21:06:43.000Z</time></trkpt>
        <trkpt lat="28.7522991" lon="104.6717559"><ele>443.91</ele><time>2025-12-05T21:06:55.000Z</time></trkpt>
        <trkpt lat="28.7523492" lon="104.6718034"><ele>441.94</ele><time>2025-12-05T21:07:39.000Z</time></trkpt>
        <trkpt lat="28.7524286" lon="104.6718573"><ele>441.91</ele><time>2025-12-05T21:08:21.000Z</time></trkpt>
        <trkpt lat="28.7525202" lon="104.671898"><ele>442.49</ele><time>2025-12-05T21:08:33.000Z</time></trkpt>
        <trkpt lat="28.7526118" lon="104.6719379"><ele>443.61</ele><time>2025-12-05T21:08:47.000Z</time></trkpt>
        <trkpt lat="28.7527031" lon="104.671981"><ele>444.34</ele><time>2025-12-05T21:08:59.000Z</time></trkpt>
        <trkpt lat="28.7527845" lon="104.6720363"><ele>444.6</ele><time>2025-12-05T21:09:09.000Z</time></trkpt>
        <trkpt lat="28.7528757" lon="104.6720657"><ele>445.14</ele><time>2025-12-05T21:09:19.000Z</time></trkpt>
        <trkpt lat="28.7529666" lon="104.6720877"><ele>445.87</ele><time>2025-12-05T21:09:29.000Z</time></trkpt>
        <trkpt lat="28.7530575" lon="104.6720907"><ele>446.41</ele><time>2025-12-05T21:09:39.000Z</time></trkpt>
        <trkpt lat="28.7531158" lon="104.6720646"><ele>447</ele><time>2025-12-05T21:09:49.000Z</time></trkpt>
        <trkpt lat="28.7531889" lon="104.6720222"><ele>446.43</ele><time>2025-12-05T21:10:11.000Z</time></trkpt>
        <trkpt lat="28.7532514" lon="104.6720677"><ele>447.04</ele><time>2025-12-05T21:10:53.000Z</time></trkpt>
        <trkpt lat="28.7533221" lon="104.672132"><ele>446.8</ele><time>2025-12-05T21:11:31.000Z</time></trkpt>
        <trkpt lat="28.7533873" lon="104.6722251"><ele>446.35</ele><time>2025-12-05T21:11:53.000Z</time></trkpt>
        <trkpt lat="28.7534039" lon="104.6722389"><ele>445.68</ele><time>2025-12-05T21:12:03.000Z</time></trkpt>
        <trkpt lat="28.7534136" lon="104.6723171"><ele>444.69</ele><time>2025-12-05T21:12:25.000Z</time></trkpt>
        <trkpt lat="28.7534088" lon="104.6723566"><ele>444.27</ele><time>2025-12-05T21:12:29.000Z</time></trkpt>
        <trkpt lat="28.7534361" lon="104.6724494"><ele>444.38</ele><time>2025-12-05T21:13:36.000Z</time></trkpt>
        <trkpt lat="28.7534237" lon="104.6725535"><ele>442.11</ele><time>2025-12-05T21:14:28.000Z</time></trkpt>
        <trkpt lat="28.7534681" lon="104.6726573"><ele>436.59</ele><time>2025-12-05T21:14:50.000Z</time></trkpt>
        <trkpt lat="28.7535247" lon="104.6727201"><ele>433.63</ele><time>2025-12-05T21:15:02.000Z</time></trkpt>
        <trkpt lat="28.7536181" lon="104.6727172"><ele>430.45</ele><time>2025-12-05T21:15:24.000Z</time></trkpt>
        <trkpt lat="28.7537048" lon="104.6726869"><ele>425.63</ele><time>2025-12-05T21:15:34.000Z</time></trkpt>
        <trkpt lat="28.7537984" lon="104.672663"><ele>425.85</ele><time>2025-12-05T21:15:50.000Z</time></trkpt>
        <trkpt lat="28.7538375" lon="104.6727306"><ele>427.73</ele><time>2025-12-05T21:16:06.000Z</time></trkpt>
        <trkpt lat="28.7539168" lon="104.6727845"><ele>427.66</ele><time>2025-12-05T21:17:14.000Z</time></trkpt>
        <trkpt lat="28.7539796" lon="104.6726987"><ele>423.93</ele><time>2025-12-05T21:17:50.000Z</time></trkpt>
        <trkpt lat="28.7540054" lon="104.672708"><ele>418.52</ele><time>2025-12-05T21:17:56.000Z</time></trkpt>
        <trkpt lat="28.7540814" lon="104.6727198"><ele>414.59</ele><time>2025-12-05T21:18:52.000Z</time></trkpt>
        <trkpt lat="28.7541485" lon="104.6726694"><ele>410.4</ele><time>2025-12-05T21:19:26.000Z</time></trkpt>
        <trkpt lat="28.7542042" lon="104.6725879"><ele>405.54</ele><time>2025-12-05T21:19:54.000Z</time></trkpt>
        <trkpt lat="28.7542041" lon="104.6724855"><ele>402.02</ele><time>2025-12-05T21:20:08.000Z</time></trkpt>
        <trkpt lat="28.7542574" lon="104.6724109"><ele>399.84</ele><time>2025-12-05T21:20:26.000Z</time></trkpt>
        <trkpt lat="28.7543349" lon="104.6724382"><ele>397.76</ele><time>2025-12-05T21:20:40.000Z</time></trkpt>
        <trkpt lat="28.7544238" lon="104.6725035"><ele>396.67</ele><time>2025-12-05T21:20:50.000Z</time></trkpt>
        <trkpt lat="28.7545127" lon="104.6725634"><ele>395.78</ele><time>2025-12-05T21:21:02.000Z</time></trkpt>
        <trkpt lat="28.754616" lon="104.6725977"><ele>395.31</ele><time>2025-12-05T21:21:20.000Z</time></trkpt>
        <trkpt lat="28.7547055" lon="104.6726415"><ele>393.82</ele><time>2025-12-05T21:21:30.000Z</time></trkpt>
        <trkpt lat="28.7547832" lon="104.6727102"><ele>394.11</ele><time>2025-12-05T21:21:58.000Z</time></trkpt>
        <trkpt lat="28.7548475" lon="104.6728028"><ele>393.83</ele><time>2025-12-05T21:22:12.000Z</time></trkpt>
        <trkpt lat="28.7548779" lon="104.6728682"><ele>393.11</ele><time>2025-12-05T21:22:24.000Z</time></trkpt>
        <trkpt lat="28.7549262" lon="104.6729445"><ele>393.08</ele><time>2025-12-05T21:24:16.000Z</time></trkpt>
        <trkpt lat="28.7549937" lon="104.6730324"><ele>392.48</ele><time>2025-12-05T21:24:46.000Z</time></trkpt>
        <trkpt lat="28.7550431" lon="104.6731216"><ele>392.01</ele><time>2025-12-05T21:25:06.000Z</time></trkpt>
        <trkpt lat="28.7550829" lon="104.6732188"><ele>392.29</ele><time>2025-12-05T21:26:24.000Z</time></trkpt>
        <trkpt lat="28.7551614" lon="104.6732857"><ele>386.59</ele><time>2025-12-05T21:26:42.000Z</time></trkpt>
        <trkpt lat="28.7552077" lon="104.6733746"><ele>381.78</ele><time>2025-12-05T21:27:16.000Z</time></trkpt>
        <trkpt lat="28.7552511" lon="104.6733238"><ele>378.14</ele><time>2025-12-05T21:27:58.000Z</time></trkpt>
        <trkpt lat="28.7552818" lon="104.6733771"><ele>372.38</ele><time>2025-12-05T21:28:38.000Z</time></trkpt>
        <trkpt lat="28.7552829" lon="104.6734717"><ele>367.94</ele><time>2025-12-05T21:29:04.000Z</time></trkpt>
        <trkpt lat="28.7553536" lon="104.6735099"><ele>364.14</ele><time>2025-12-05T21:29:22.000Z</time></trkpt>
        <trkpt lat="28.7554473" lon="104.6734843"><ele>361.72</ele><time>2025-12-05T21:29:34.000Z</time></trkpt>
        <trkpt lat="28.755543" lon="104.6734565"><ele>360.09</ele><time>2025-12-05T21:29:42.000Z</time></trkpt>
        <trkpt lat="28.7556324" lon="104.67341"><ele>358.6</ele><time>2025-12-05T21:29:52.000Z</time></trkpt>
        <trkpt lat="28.7557321" lon="104.6733744"><ele>356.96</ele><time>2025-12-05T21:30:02.000Z</time></trkpt>
        <trkpt lat="28.7557903" lon="104.6733569"><ele>355.25</ele><time>2025-12-05T21:30:08.000Z</time></trkpt>
        <trkpt lat="28.7558585" lon="104.6733108"><ele>352.99</ele><time>2025-12-05T21:31:12.000Z</time></trkpt>
        <trkpt lat="28.7558807" lon="104.6734188"><ele>352.58</ele><time>2025-12-05T21:31:46.000Z</time></trkpt>
        <trkpt lat="28.7559628" lon="104.6734757"><ele>354.6</ele><time>2025-12-05T21:32:00.000Z</time></trkpt>
        <trkpt lat="28.7560525" lon="104.6734999"><ele>354.48</ele><time>2025-12-05T21:32:10.000Z</time></trkpt>
        <trkpt lat="28.7561502" lon="104.6734961"><ele>352.11</ele><time>2025-12-05T21:32:18.000Z</time></trkpt>
        <trkpt lat="28.7562068" lon="104.6735753"><ele>351.26</ele><time>2025-12-05T21:32:34.000Z</time></trkpt>
        <trkpt lat="28.756216" lon="104.6736852"><ele>351.43</ele><time>2025-12-05T21:32:46.000Z</time></trkpt>
        <trkpt lat="28.7562338" lon="104.6737196"><ele>352.82</ele><time>2025-12-05T21:32:54.000Z</time></trkpt>
        <trkpt lat="28.7562442" lon="104.6737997"><ele>352.81</ele><time>2025-12-05T21:33:18.000Z</time></trkpt>
        <trkpt lat="28.7563198" lon="104.6738259"><ele>353</ele><time>2025-12-05T21:33:56.000Z</time></trkpt>
        <trkpt lat="28.7563865" lon="104.6738968"><ele>348.02</ele><time>2025-12-05T21:34:08.000Z</time></trkpt>
        <trkpt lat="28.7564199" lon="104.6739993"><ele>344.36</ele><time>2025-12-05T21:34:18.000Z</time></trkpt>
        <trkpt lat="28.7564385" lon="104.6741089"><ele>342.35</ele><time>2025-12-05T21:34:28.000Z</time></trkpt>
        <trkpt lat="28.756472" lon="104.6742198"><ele>342.5</ele><time>2025-12-05T21:34:40.000Z</time></trkpt>
        <trkpt lat="28.756508" lon="104.67432"><ele>344.06</ele><time>2025-12-05T21:34:50.000Z</time></trkpt>
        <trkpt lat="28.756572" lon="104.6743949"><ele>345.3</ele><time>2025-12-05T21:35:02.000Z</time></trkpt>
        <trkpt lat="28.7566549" lon="104.6744648"><ele>345.58</ele><time>2025-12-05T21:35:12.000Z</time></trkpt>
        <trkpt lat="28.7567543" lon="104.6745071"><ele>345.9</ele><time>2025-12-05T21:35:28.000Z</time></trkpt>
        <trkpt lat="28.7568514" lon="104.674494"><ele>345.24</ele><time>2025-12-05T21:35:44.000Z</time></trkpt>
        <trkpt lat="28.7569542" lon="104.6744715"><ele>342.55</ele><time>2025-12-05T21:36:00.000Z</time></trkpt>
        <trkpt lat="28.7570522" lon="104.6744773"><ele>341.52</ele><time>2025-12-05T21:36:14.000Z</time></trkpt>
        <trkpt lat="28.7571406" lon="104.6745324"><ele>340.03</ele><time>2025-12-05T21:37:08.000Z</time></trkpt>
        <trkpt lat="28.7571304" lon="104.6746203"><ele>339.17</ele><time>2025-12-05T21:37:18.000Z</time></trkpt>
        <trkpt lat="28.7571583" lon="104.6747096"><ele>338.81</ele><time>2025-12-05T21:37:38.000Z</time></trkpt>
        <trkpt lat="28.7572123" lon="104.6747953"><ele>335.25</ele><time>2025-12-05T21:37:58.000Z</time></trkpt>
        <trkpt lat="28.7572964" lon="104.6748421"><ele>331.66</ele><time>2025-12-05T21:38:10.000Z</time></trkpt>
        <trkpt lat="28.7573183" lon="104.6749298"><ele>328.71</ele><time>2025-12-05T21:38:58.000Z</time></trkpt>
        <trkpt lat="28.7573174" lon="104.6750356"><ele>326</ele><time>2025-12-05T21:39:08.000Z</time></trkpt>
        <trkpt lat="28.7573273" lon="104.6751244"><ele>324.63</ele><time>2025-12-05T21:39:24.000Z</time></trkpt>
        <trkpt lat="28.7573562" lon="104.6752181"><ele>323.96</ele><time>2025-12-05T21:40:20.000Z</time></trkpt>
        <trkpt lat="28.7574222" lon="104.6752839"><ele>318.47</ele><time>2025-12-05T21:40:34.000Z</time></trkpt>
        <trkpt lat="28.7574767" lon="104.6753686"><ele>315.69</ele><time>2025-12-05T21:41:00.000Z</time></trkpt>
        <trkpt lat="28.7575649" lon="104.6754052"><ele>311.43</ele><time>2025-12-05T21:41:16.000Z</time></trkpt>
        <trkpt lat="28.7576628" lon="104.6754432"><ele>306.74</ele><time>2025-12-05T21:41:26.000Z</time></trkpt>
        <trkpt lat="28.7577581" lon="104.675483"><ele>303.92</ele><time>2025-12-05T21:41:38.000Z</time></trkpt>
        <trkpt lat="28.7578575" lon="104.6754856"><ele>302.29</ele><time>2025-12-05T21:41:50.000Z</time></trkpt>
        <trkpt lat="28.7578949" lon="104.6754873"><ele>302.03</ele><time>2025-12-05T21:41:54.000Z</time></trkpt>
        <trkpt lat="28.7579681" lon="104.6754828"><ele>301.24</ele><time>2025-12-05T21:42:30.000Z</time></trkpt>
        <trkpt lat="28.7580627" lon="104.6754964"><ele>299.92</ele><time>2025-12-05T21:42:52.000Z</time></trkpt>
        <trkpt lat="28.7581535" lon="104.6755242"><ele>298.82</ele><time>2025-12-05T21:43:08.000Z</time></trkpt>
        <trkpt lat="28.7582208" lon="104.6755563"><ele>297.71</ele><time>2025-12-05T21:43:20.000Z</time></trkpt>
        <trkpt lat="28.7583005" lon="104.675587"><ele>297.44</ele><time>2025-12-05T21:43:50.000Z</time></trkpt>
        <trkpt lat="28.758387" lon="104.6756272"><ele>295.92</ele><time>2025-12-05T21:44:00.000Z</time></trkpt>
        <trkpt lat="28.7584805" lon="104.6756525"><ele>295</ele><time>2025-12-05T21:44:08.000Z</time></trkpt>
        <trkpt lat="28.7585825" lon="104.6756753"><ele>294.14</ele><time>2025-12-05T21:44:18.000Z</time></trkpt>
        <trkpt lat="28.7586456" lon="104.6757483"><ele>294.06</ele><time>2025-12-05T21:44:34.000Z</time></trkpt>
        <trkpt lat="28.7587387" lon="104.6757425"><ele>294.69</ele><time>2025-12-05T21:44:42.000Z</time></trkpt>
        <trkpt lat="28.7588339" lon="104.6756936"><ele>294.4</ele><time>2025-12-05T21:44:56.000Z</time></trkpt>
        <trkpt lat="28.758926" lon="104.675644"><ele>295.33</ele><time>2025-12-05T21:45:08.000Z</time></trkpt>
        <trkpt lat="28.7590132" lon="104.6755797"><ele>295.63</ele><time>2025-12-05T21:45:50.000Z</time></trkpt>
        <trkpt lat="28.7591043" lon="104.6755646"><ele>293.65</ele><time>2025-12-05T21:46:08.000Z</time></trkpt>
        <trkpt lat="28.7591873" lon="104.6756018"><ele>292.5</ele><time>2025-12-05T21:46:18.000Z</time></trkpt>
        <trkpt lat="28.7592732" lon="104.6756395"><ele>291.74</ele><time>2025-12-05T21:46:44.000Z</time></trkpt>
        <trkpt lat="28.7592947" lon="104.6756829"><ele>293.36</ele><time>2025-12-05T21:46:54.000Z</time></trkpt>
        <trkpt lat="28.7593637" lon="104.675669"><ele>294.19</ele><time>2025-12-05T21:47:10.000Z</time></trkpt>
        <trkpt lat="28.7594215" lon="104.6756958"><ele>291.3</ele><time>2025-12-05T21:47:30.000Z</time></trkpt>
        <trkpt lat="28.7594313" lon="104.6757824"><ele>287.99</ele><time>2025-12-05T21:47:48.000Z</time></trkpt>
        <trkpt lat="28.7594687" lon="104.6758775"><ele>285.45</ele><time>2025-12-05T21:48:02.000Z</time></trkpt>
        <trkpt lat="28.7595443" lon="104.6759558"><ele>281.11</ele><time>2025-12-05T21:48:38.000Z</time></trkpt>
        <trkpt lat="28.7596367" lon="104.6759666"><ele>276.89</ele><time>2025-12-05T21:48:46.000Z</time></trkpt>
        <trkpt lat="28.7597303" lon="104.6759361"><ele>274.51</ele><time>2025-12-05T21:48:56.000Z</time></trkpt>
        <trkpt lat="28.7598099" lon="104.6758649"><ele>272.44</ele><time>2025-12-05T21:49:06.000Z</time></trkpt>
        <trkpt lat="28.7598975" lon="104.6758236"><ele>270.7</ele><time>2025-12-05T21:49:14.000Z</time></trkpt>
        <trkpt lat="28.7599902" lon="104.6757814"><ele>269.71</ele><time>2025-12-05T21:49:24.000Z</time></trkpt>
        <trkpt lat="28.7600884" lon="104.6757459"><ele>268.74</ele><time>2025-12-05T21:49:36.000Z</time></trkpt>
        <trkpt lat="28.7601734" lon="104.6756907"><ele>267.95</ele><time>2025-12-05T21:49:48.000Z</time></trkpt>
        <trkpt lat="28.7601431" lon="104.6757828"><ele>265.33</ele><time>2025-12-05T21:51:56.000Z</time></trkpt>
        <trkpt lat="28.7601942" lon="104.6756869"><ele>265.57</ele><time>2025-12-05T21:55:08.000Z</time></trkpt>
        <trkpt lat="28.7602816" lon="104.6756542"><ele>266.81</ele><time>2025-12-05T21:55:24.000Z</time></trkpt>
        <trkpt lat="28.7602997" lon="104.6756364"><ele>267.98</ele><time>2025-12-05T21:55:28.000Z</time></trkpt>
        <trkpt lat="28.7603763" lon="104.6756206"><ele>267.88</ele><time>2025-12-05T21:56:02.000Z</time></trkpt>
        <trkpt lat="28.7604742" lon="104.6756146"><ele>266.42</ele><time>2025-12-05T21:56:12.000Z</time></trkpt>
        <trkpt lat="28.7605095" lon="104.6756195"><ele>265.67</ele><time>2025-12-05T21:56:16.000Z</time></trkpt>
        <trkpt lat="28.7605095" lon="104.6756195"><ele>265.67</ele><time>2025-12-05T21:56:59.000Z</time></trkpt>
      </trkseg>
  </trk>
</gpx>